PWSweather.com
Personal Weather Stations
Station Observations
DL5ARK
SonnebergDE

SonnebergDE

Lat: 50.34904861, Lon: 11.18112087

Elevation: 1214

Station Type: Selfmade

http://www.sumbarg.de

High Low Average
Temperature 53.2°F11.8°C 44.2°F6.8°C 47.6°F8.7°C
Dew Point 54.0°F12.2°C 47.2°F8.4°C 50.7°F10.4°C
Winds 9.4 mph 15.1 kmh Calm Calm 1.0 mph SW1.6 kmh SW
Wind Gusts 9.5 mph15.3 kmh -- 1.0 mph1.6 kmh
Humidity 92% 82% 88%
Pressure 30.17 in1021.7 mb 29.99 in1015.6 mb -
Precipitation 0.00 in0.0 mm - -
Hour Temp Dew Point Humidity Winds Wind Gusts Pressure Precip Precip Rate Daily Precip Total
12:01 AM 44.2°F6.8°C 47.6°F8.7°C 90% Calm Calm -- 29.99 in1015.6 mb 0.00 in0.0 mm 0.00 in0.0 mm 0.00 in0.0 mm
12:04 AM 44.2°F6.8°C 47.6°F8.7°C 90% Calm Calm -- 29.99 in1015.6 mb 0.00 in0.0 mm 0.00 in0.0 mm 0.00 in0.0 mm
12:07 AM 44.3°F6.8°C 47.8°F8.8°C 91% Calm Calm -- 29.99 in1015.6 mb 0.00 in0.0 mm 0.00 in0.0 mm 0.00 in0.0 mm
12:10 AM 44.2°F6.8°C 47.7°F8.7°C 91% Calm Calm -- 29.99 in1015.6 mb 0.00 in0.0 mm 0.00 in0.0 mm 0.00 in0.0 mm
12:13 AM 44.3°F6.8°C 47.8°F8.8°C 91% Calm Calm -- 30.00 in1015.9 mb 0.00 in0.0 mm 0.00 in0.0 mm 0.00 in0.0 mm
12:16 AM 44.4°F6.9°C 47.6°F8.7°C 90% Calm Calm -- 29.99 in1015.6 mb 0.00 in0.0 mm 0.00 in0.0 mm 0.00 in0.0 mm
12:19 AM 44.4°F6.9°C 47.2°F8.4°C 90% Calm Calm -- 29.99 in1015.6 mb 0.00 in0.0 mm 0.00 in0.0 mm 0.00 in0.0 mm
12:22 AM 44.3°F6.8°C 48.0°F8.9°C 91% Calm Calm -- 29.99 in1015.6 mb 0.00 in0.0 mm 0.00 in0.0 mm 0.00 in0.0 mm
12:25 AM 44.3°F6.8°C 47.9°F8.8°C 91% Calm Calm -- 30.00 in1015.9 mb 0.00 in0.0 mm 0.00 in0.0 mm 0.00 in0.0 mm
12:28 AM 44.3°F6.8°C 47.9°F8.8°C 91% Calm Calm -- 29.99 in1015.6 mb 0.00 in0.0 mm 0.00 in0.0 mm 0.00 in0.0 mm
12:31 AM 44.3°F6.8°C 48.0°F8.9°C 91% Calm Calm -- 29.99 in1015.6 mb 0.00 in0.0 mm 0.00 in0.0 mm 0.00 in0.0 mm
12:34 AM 44.3°F6.8°C 47.9°F8.8°C 91% Calm Calm -- 30.00 in1015.9 mb 0.00 in0.0 mm 0.00 in0.0 mm 0.00 in0.0 mm
12:37 AM 44.5°F6.9°C 48.1°F8.9°C 91% Calm Calm -- 29.99 in1015.6 mb 0.00 in0.0 mm 0.00 in0.0 mm 0.00 in0.0 mm
12:40 AM 44.5°F6.9°C 48.0°F8.9°C 91% Calm Calm -- 29.99 in1015.6 mb 0.00 in0.0 mm 0.00 in0.0 mm 0.00 in0.0 mm
12:43 AM 44.5°F6.9°C 48.1°F8.9°C 91% Calm Calm -- 30.00 in1015.9 mb 0.00 in0.0 mm 0.00 in0.0 mm 0.00 in0.0 mm
12:46 AM 44.6°F7.0°C 48.2°F9.0°C 91% Calm Calm -- 29.99 in1015.6 mb 0.00 in0.0 mm 0.00 in0.0 mm 0.00 in0.0 mm
12:49 AM 44.6°F7.0°C 48.0°F8.9°C 91% Calm Calm -- 29.99 in1015.6 mb 0.00 in0.0 mm 0.00 in0.0 mm 0.00 in0.0 mm
12:52 AM 44.6°F7.0°C 47.9°F8.8°C 90% Calm Calm -- 30.00 in1015.9 mb 0.00 in0.0 mm 0.00 in0.0 mm 0.00 in0.0 mm
12:55 AM 44.8°F7.1°C 48.1°F8.9°C 91% Calm Calm -- 30.00 in1015.9 mb 0.00 in0.0 mm 0.00 in0.0 mm 0.00 in0.0 mm
12:58 AM 44.9°F7.2°C 48.5°F9.2°C 92% Calm Calm -- 30.00 in1015.9 mb 0.00 in0.0 mm 0.00 in0.0 mm 0.00 in0.0 mm
01:01 AM 44.9°F7.2°C 47.8°F8.8°C 90% Calm Calm -- 30.00 in1015.9 mb 0.00 in0.0 mm 0.00 in0.0 mm 0.00 in0.0 mm
01:04 AM 44.9°F7.2°C 48.3°F9.1°C 91% Calm Calm -- 30.00 in1015.9 mb 0.00 in0.0 mm 0.00 in0.0 mm 0.00 in0.0 mm
01:07 AM 44.8°F7.1°C 48.3°F9.1°C 91% Calm Calm -- 30.00 in1015.9 mb 0.00 in0.0 mm 0.00 in0.0 mm 0.00 in0.0 mm
01:10 AM 44.9°F7.2°C 48.3°F9.1°C 91% Calm Calm -- 30.00 in1015.9 mb 0.00 in0.0 mm 0.00 in0.0 mm 0.00 in0.0 mm
01:13 AM 45.1°F7.3°C 48.5°F9.2°C 92% Calm Calm -- 30.00 in1015.9 mb 0.00 in0.0 mm 0.00 in0.0 mm 0.00 in0.0 mm
01:16 AM 44.8°F7.1°C 48.5°F9.2°C 91% Calm Calm -- 30.00 in1015.9 mb 0.00 in0.0 mm 0.00 in0.0 mm 0.00 in0.0 mm
01:19 AM 44.9°F7.2°C 48.5°F9.2°C 91% Calm Calm -- 30.00 in1015.9 mb 0.00 in0.0 mm 0.00 in0.0 mm 0.00 in0.0 mm
01:22 AM 44.9°F7.2°C 48.4°F9.1°C 91% Calm Calm -- 30.00 in1015.9 mb 0.00 in0.0 mm 0.00 in0.0 mm 0.00 in0.0 mm
01:25 AM 44.9°F7.2°C 48.8°F9.3°C 92% Calm Calm -- 30.00 in1015.9 mb 0.00 in0.0 mm 0.00 in0.0 mm 0.00 in0.0 mm
01:28 AM 44.9°F7.2°C 48.8°F9.3°C 92% Calm Calm -- 30.01 in1016.3 mb 0.00 in0.0 mm 0.00 in0.0 mm 0.00 in0.0 mm
01:31 AM 44.9°F7.2°C 48.5°F9.2°C 92% Calm Calm -- 30.01 in1016.3 mb 0.00 in0.0 mm 0.00 in0.0 mm 0.00 in0.0 mm
01:34 AM 44.9°F7.2°C 48.7°F9.3°C 91% Calm Calm -- 30.02 in1016.6 mb 0.00 in0.0 mm 0.00 in0.0 mm 0.00 in0.0 mm
01:37 AM 44.9°F7.2°C 48.6°F9.2°C 91% Calm Calm -- 30.02 in1016.6 mb 0.00 in0.0 mm 0.00 in0.0 mm 0.00 in0.0 mm
01:40 AM 44.9°F7.2°C 48.7°F9.3°C 92% Calm Calm -- 30.02 in1016.6 mb 0.00 in0.0 mm 0.00 in0.0 mm 0.00 in0.0 mm
01:43 AM 44.9°F7.2°C 48.7°F9.3°C 91% Calm Calm -- 30.01 in1016.3 mb 0.00 in0.0 mm 0.00 in0.0 mm 0.00 in0.0 mm
01:46 AM 44.9°F7.2°C 48.6°F9.2°C 91% Calm Calm -- 30.02 in1016.6 mb 0.00 in0.0 mm 0.00 in0.0 mm 0.00 in0.0 mm
01:49 AM 45.1°F7.3°C 48.6°F9.2°C 91% Calm Calm -- 30.02 in1016.6 mb 0.00 in0.0 mm 0.00 in0.0 mm 0.00 in0.0 mm
01:52 AM 44.9°F7.2°C 48.6°F9.2°C 91% Calm Calm -- 30.02 in1016.6 mb 0.00 in0.0 mm 0.00 in0.0 mm 0.00 in0.0 mm
01:55 AM 44.9°F7.2°C 48.6°F9.2°C 91% Calm Calm -- 30.02 in1016.6 mb 0.00 in0.0 mm 0.00 in0.0 mm 0.00 in0.0 mm
01:58 AM 45.1°F7.3°C 48.9°F9.4°C 92% Calm Calm -- 30.02 in1016.6 mb 0.00 in0.0 mm 0.00 in0.0 mm 0.00 in0.0 mm
02:01 AM 45.1°F7.3°C 48.8°F9.3°C 91% Calm Calm -- 30.02 in1016.6 mb 0.00 in0.0 mm 0.00 in0.0 mm 0.00 in0.0 mm
02:04 AM 45.1°F7.3°C 48.6°F9.2°C 91% Calm Calm -- 30.03 in1016.9 mb 0.00 in0.0 mm 0.00 in0.0 mm 0.00 in0.0 mm
02:07 AM 45.1°F7.3°C 48.6°F9.2°C 91% Calm Calm -- 30.03 in1016.9 mb 0.00 in0.0 mm 0.00 in0.0 mm 0.00 in0.0 mm
02:10 AM 45.1°F7.3°C 49.0°F9.4°C 92% Calm Calm -- 30.03 in1016.9 mb 0.00 in0.0 mm 0.00 in0.0 mm 0.00 in0.0 mm
02:13 AM 44.9°F7.2°C 48.8°F9.3°C 91% Calm Calm -- 30.03 in1016.9 mb 0.00 in0.0 mm 0.00 in0.0 mm 0.00 in0.0 mm
02:16 AM 44.9°F7.2°C 48.8°F9.3°C 91% Calm Calm -- 30.03 in1016.9 mb 0.00 in0.0 mm 0.00 in0.0 mm 0.00 in0.0 mm
02:19 AM 45.1°F7.3°C 48.8°F9.3°C 91% Calm Calm -- 30.03 in1016.9 mb 0.00 in0.0 mm 0.00 in0.0 mm 0.00 in0.0 mm
02:22 AM 44.9°F7.2°C 48.9°F9.4°C 92% Calm Calm -- 30.03 in1016.9 mb 0.00 in0.0 mm 0.00 in0.0 mm 0.00 in0.0 mm
02:25 AM 44.9°F7.2°C 48.9°F9.4°C 91% Calm Calm -- 30.03 in1016.9 mb 0.00 in0.0 mm 0.00 in0.0 mm 0.00 in0.0 mm
02:28 AM 44.9°F7.2°C 48.7°F9.3°C 91% Calm Calm -- 30.03 in1016.9 mb 0.00 in0.0 mm 0.00 in0.0 mm 0.00 in0.0 mm
02:31 AM 45.1°F7.3°C 49.0°F9.4°C 91% Calm Calm -- 30.04 in1017.3 mb 0.00 in0.0 mm 0.00 in0.0 mm 0.00 in0.0 mm
02:34 AM 44.9°F7.2°C 48.8°F9.3°C 91% Calm Calm -- 30.03 in1016.9 mb 0.00 in0.0 mm 0.00 in0.0 mm 0.00 in0.0 mm
02:37 AM 44.9°F7.2°C 48.9°F9.4°C 92% Calm Calm -- 30.03 in1016.9 mb 0.00 in0.0 mm 0.00 in0.0 mm 0.00 in0.0 mm
02:40 AM 44.9°F7.2°C 49.0°F9.4°C 91% Calm Calm -- 30.03 in1016.9 mb 0.00 in0.0 mm 0.00 in0.0 mm 0.00 in0.0 mm
02:43 AM 44.9°F7.2°C 48.9°F9.4°C 91% Calm Calm -- 30.03 in1016.9 mb 0.00 in0.0 mm 0.00 in0.0 mm 0.00 in0.0 mm
02:46 AM 44.9°F7.2°C 49.2°F9.6°C 92% Calm Calm -- 30.03 in1016.9 mb 0.00 in0.0 mm 0.00 in0.0 mm 0.00 in0.0 mm
02:49 AM 44.9°F7.2°C 49.0°F9.4°C 92% Calm Calm -- 30.03 in1016.9 mb 0.00 in0.0 mm 0.00 in0.0 mm 0.00 in0.0 mm
02:52 AM 44.8°F7.1°C 48.8°F9.3°C 91% Calm Calm -- 30.03 in1016.9 mb 0.00 in0.0 mm 0.00 in0.0 mm 0.00 in0.0 mm
02:55 AM 44.8°F7.1°C 48.6°F9.2°C 91% Calm Calm -- 30.03 in1016.9 mb 0.00 in0.0 mm 0.00 in0.0 mm 0.00 in0.0 mm
02:58 AM 44.9°F7.2°C 48.8°F9.3°C 90% Calm Calm -- 30.03 in1016.9 mb 0.00 in0.0 mm 0.00 in0.0 mm 0.00 in0.0 mm
03:01 AM 44.9°F7.2°C 48.8°F9.3°C 91% Calm Calm -- 30.03 in1016.9 mb 0.00 in0.0 mm 0.00 in0.0 mm 0.00 in0.0 mm
03:04 AM 44.9°F7.2°C 49.0°F9.4°C 91% Calm Calm -- 30.03 in1016.9 mb 0.00 in0.0 mm 0.00 in0.0 mm 0.00 in0.0 mm
03:07 AM 44.9°F7.2°C 48.5°F9.2°C 90% Calm Calm -- 30.03 in1016.9 mb 0.00 in0.0 mm 0.00 in0.0 mm 0.00 in0.0 mm
03:10 AM 44.9°F7.2°C 48.8°F9.3°C 91% Calm Calm -- 30.03 in1016.9 mb 0.00 in0.0 mm 0.00 in0.0 mm 0.00 in0.0 mm
03:13 AM 44.9°F7.2°C 49.0°F9.4°C 92% Calm Calm -- 30.03 in1016.9 mb 0.00 in0.0 mm 0.00 in0.0 mm 0.00 in0.0 mm
03:16 AM 45.1°F7.3°C 49.0°F9.4°C 92% Calm Calm -- 30.03 in1016.9 mb 0.00 in0.0 mm 0.00 in0.0 mm 0.00 in0.0 mm
03:19 AM 44.9°F7.2°C 49.0°F9.4°C 92% Calm Calm -- 30.03 in1016.9 mb 0.00 in0.0 mm 0.00 in0.0 mm 0.00 in0.0 mm
03:22 AM 45.1°F7.3°C 49.0°F9.4°C 91% Calm Calm -- 30.03 in1016.9 mb 0.00 in0.0 mm 0.00 in0.0 mm 0.00 in0.0 mm
03:25 AM 45.1°F7.3°C 49.0°F9.4°C 91% Calm Calm -- 30.03 in1016.9 mb 0.00 in0.0 mm 0.00 in0.0 mm 0.00 in0.0 mm
03:28 AM 44.9°F7.2°C 49.2°F9.6°C 92% Calm Calm -- 30.03 in1016.9 mb 0.00 in0.0 mm 0.00 in0.0 mm 0.00 in0.0 mm
03:31 AM 44.8°F7.1°C 49.0°F9.4°C 91% Calm Calm -- 30.03 in1016.9 mb 0.00 in0.0 mm 0.00 in0.0 mm 0.00 in0.0 mm
03:34 AM 44.9°F7.2°C 49.1°F9.5°C 91% Calm Calm -- 30.03 in1016.9 mb 0.00 in0.0 mm 0.00 in0.0 mm 0.00 in0.0 mm
03:37 AM 44.9°F7.2°C 49.2°F9.6°C 92% Calm Calm -- 30.03 in1016.9 mb 0.00 in0.0 mm 0.00 in0.0 mm 0.00 in0.0 mm
03:40 AM 44.9°F7.2°C 49.0°F9.4°C 92% Calm Calm -- 30.03 in1016.9 mb 0.00 in0.0 mm 0.00 in0.0 mm 0.00 in0.0 mm
03:43 AM 44.9°F7.2°C 48.5°F9.2°C 90% Calm Calm -- 30.03 in1016.9 mb 0.00 in0.0 mm 0.00 in0.0 mm 0.00 in0.0 mm
03:46 AM 44.9°F7.2°C 49.2°F9.6°C 92% Calm Calm -- 30.04 in1017.3 mb 0.00 in0.0 mm 0.00 in0.0 mm 0.00 in0.0 mm
03:49 AM 44.9°F7.2°C 49.0°F9.4°C 92% Calm Calm -- 30.05 in1017.6 mb 0.00 in0.0 mm 0.00 in0.0 mm 0.00 in0.0 mm
03:52 AM 44.9°F7.2°C 49.3°F9.6°C 92% Calm Calm -- 30.04 in1017.3 mb 0.00 in0.0 mm 0.00 in0.0 mm 0.00 in0.0 mm
03:55 AM 44.9°F7.2°C 49.0°F9.4°C 92% Calm Calm -- 30.05 in1017.6 mb 0.00 in0.0 mm 0.00 in0.0 mm 0.00 in0.0 mm
03:58 AM 44.9°F7.2°C 49.1°F9.5°C 92% Calm Calm -- 30.05 in1017.6 mb 0.00 in0.0 mm 0.00 in0.0 mm 0.00 in0.0 mm
04:01 AM 44.9°F7.2°C 49.1°F9.5°C 92% Calm Calm -- 30.05 in1017.6 mb 0.00 in0.0 mm 0.00 in0.0 mm 0.00 in0.0 mm
04:04 AM 44.8°F7.1°C 49.0°F9.4°C 92% Calm Calm -- 30.05 in1017.6 mb 0.00 in0.0 mm 0.00 in0.0 mm 0.00 in0.0 mm
04:07 AM 44.8°F7.1°C 49.1°F9.5°C 92% Calm Calm -- 30.04 in1017.3 mb 0.00 in0.0 mm 0.00 in0.0 mm 0.00 in0.0 mm
04:10 AM 44.8°F7.1°C 49.0°F9.4°C 92% Calm Calm -- 30.05 in1017.6 mb 0.00 in0.0 mm 0.00 in0.0 mm 0.00 in0.0 mm
04:13 AM 44.9°F7.2°C 49.0°F9.4°C 91% Calm Calm -- 30.05 in1017.6 mb 0.00 in0.0 mm 0.00 in0.0 mm 0.00 in0.0 mm
04:16 AM 44.9°F7.2°C 49.1°F9.5°C 92% Calm Calm -- 30.05 in1017.6 mb 0.00 in0.0 mm 0.00 in0.0 mm 0.00 in0.0 mm
04:19 AM 44.9°F7.2°C 49.0°F9.4°C 92% Calm Calm -- 30.05 in1017.6 mb 0.00 in0.0 mm 0.00 in0.0 mm 0.00 in0.0 mm
04:22 AM 44.8°F7.1°C 49.2°F9.6°C 92% Calm Calm -- 30.05 in1017.6 mb 0.00 in0.0 mm 0.00 in0.0 mm 0.00 in0.0 mm
04:25 AM 44.9°F7.2°C 49.0°F9.4°C 92% Calm Calm -- 30.05 in1017.6 mb 0.00 in0.0 mm 0.00 in0.0 mm 0.00 in0.0 mm
04:28 AM 44.9°F7.2°C 49.0°F9.4°C 91% Calm Calm -- 30.05 in1017.6 mb 0.00 in0.0 mm 0.00 in0.0 mm 0.00 in0.0 mm
04:31 AM 44.9°F7.2°C 49.1°F9.5°C 91% Calm Calm -- 30.06 in1017.9 mb 0.00 in0.0 mm 0.00 in0.0 mm 0.00 in0.0 mm
04:34 AM 44.9°F7.2°C 49.1°F9.5°C 91% Calm Calm -- 30.07 in1018.3 mb 0.00 in0.0 mm 0.00 in0.0 mm 0.00 in0.0 mm
04:37 AM 44.9°F7.2°C 49.0°F9.4°C 92% Calm Calm -- 30.07 in1018.3 mb 0.00 in0.0 mm 0.00 in0.0 mm 0.00 in0.0 mm
04:40 AM 44.8°F7.1°C 49.2°F9.6°C 92% Calm Calm -- 30.06 in1017.9 mb 0.00 in0.0 mm 0.00 in0.0 mm 0.00 in0.0 mm
04:43 AM 44.9°F7.2°C 49.1°F9.5°C 92% Calm Calm -- 30.07 in1018.3 mb 0.00 in0.0 mm 0.00 in0.0 mm 0.00 in0.0 mm
04:46 AM 44.9°F7.2°C 49.1°F9.5°C 92% Calm Calm -- 30.07 in1018.3 mb 0.00 in0.0 mm 0.00 in0.0 mm 0.00 in0.0 mm
04:49 AM 44.8°F7.1°C 49.2°F9.6°C 92% Calm Calm -- 30.07 in1018.3 mb 0.00 in0.0 mm 0.00 in0.0 mm 0.00 in0.0 mm
04:52 AM 44.9°F7.2°C 49.1°F9.5°C 92% Calm Calm -- 30.07 in1018.3 mb 0.00 in0.0 mm 0.00 in0.0 mm 0.00 in0.0 mm
04:55 AM 44.8°F7.1°C 49.0°F9.4°C 91% Calm Calm -- 30.07 in1018.3 mb 0.00 in0.0 mm 0.00 in0.0 mm 0.00 in0.0 mm
04:58 AM 44.8°F7.1°C 49.1°F9.5°C 92% Calm Calm -- 30.07 in1018.3 mb 0.00 in0.0 mm 0.00 in0.0 mm 0.00 in0.0 mm
05:01 AM 44.8°F7.1°C 49.1°F9.5°C 91% Calm Calm -- 30.07 in1018.3 mb 0.00 in0.0 mm 0.00 in0.0 mm 0.00 in0.0 mm
05:04 AM 44.8°F7.1°C 49.1°F9.5°C 92% Calm Calm -- 30.07 in1018.3 mb 0.00 in0.0 mm 0.00 in0.0 mm 0.00 in0.0 mm
05:07 AM 44.8°F7.1°C 49.1°F9.5°C 91% Calm Calm -- 30.07 in1018.3 mb 0.00 in0.0 mm 0.00 in0.0 mm 0.00 in0.0 mm
05:10 AM 44.8°F7.1°C 49.0°F9.4°C 91% Calm Calm -- 30.07 in1018.3 mb 0.00 in0.0 mm 0.00 in0.0 mm 0.00 in0.0 mm
05:13 AM 44.8°F7.1°C 49.1°F9.5°C 92% Calm Calm -- 30.07 in1018.3 mb 0.00 in0.0 mm 0.00 in0.0 mm 0.00 in0.0 mm
05:16 AM 44.8°F7.1°C 49.1°F9.5°C 91% Calm Calm -- 30.07 in1018.3 mb 0.00 in0.0 mm 0.00 in0.0 mm 0.00 in0.0 mm
05:19 AM 44.8°F7.1°C 49.1°F9.5°C 91% Calm Calm -- 30.08 in1018.6 mb 0.00 in0.0 mm 0.00 in0.0 mm 0.00 in0.0 mm
05:22 AM 44.8°F7.1°C 49.1°F9.5°C 91% Calm Calm -- 30.07 in1018.3 mb 0.00 in0.0 mm 0.00 in0.0 mm 0.00 in0.0 mm
05:25 AM 44.8°F7.1°C 49.1°F9.5°C 91% Calm Calm -- 30.07 in1018.3 mb 0.00 in0.0 mm 0.00 in0.0 mm 0.00 in0.0 mm
05:28 AM 44.8°F7.1°C 49.1°F9.5°C 91% Calm Calm -- 30.08 in1018.6 mb 0.00 in0.0 mm 0.00 in0.0 mm 0.00 in0.0 mm
05:31 AM 44.9°F7.2°C 49.0°F9.4°C 91% Calm Calm -- 30.08 in1018.6 mb 0.00 in0.0 mm 0.00 in0.0 mm 0.00 in0.0 mm
05:34 AM 44.8°F7.1°C 49.3°F9.6°C 92% Calm Calm -- 30.08 in1018.6 mb 0.00 in0.0 mm 0.00 in0.0 mm 0.00 in0.0 mm
05:37 AM 44.8°F7.1°C 49.1°F9.5°C 91% Calm Calm -- 30.08 in1018.6 mb 0.00 in0.0 mm 0.00 in0.0 mm 0.00 in0.0 mm
05:40 AM 44.8°F7.1°C 49.1°F9.5°C 91% Calm Calm -- 30.08 in1018.6 mb 0.00 in0.0 mm 0.00 in0.0 mm 0.00 in0.0 mm
05:43 AM 44.8°F7.1°C 49.0°F9.4°C 91% Calm Calm -- 30.09 in1019.0 mb 0.00 in0.0 mm 0.00 in0.0 mm 0.00 in0.0 mm
05:46 AM 44.8°F7.1°C 49.3°F9.6°C 91% Calm Calm -- 30.09 in1019.0 mb 0.00 in0.0 mm 0.00 in0.0 mm 0.00 in0.0 mm
05:49 AM 44.9°F7.2°C 49.1°F9.5°C 91% Calm Calm -- 30.09 in1019.0 mb 0.00 in0.0 mm 0.00 in0.0 mm 0.00 in0.0 mm
05:52 AM 44.8°F7.1°C 49.0°F9.4°C 91% Calm Calm -- 30.09 in1019.0 mb 0.00 in0.0 mm 0.00 in0.0 mm 0.00 in0.0 mm
05:55 AM 44.8°F7.1°C 49.0°F9.4°C 91% Calm Calm -- 30.10 in1019.3 mb 0.00 in0.0 mm 0.00 in0.0 mm 0.00 in0.0 mm
05:58 AM 44.8°F7.1°C 49.0°F9.4°C 91% Calm Calm -- 30.10 in1019.3 mb 0.00 in0.0 mm 0.00 in0.0 mm 0.00 in0.0 mm
06:01 AM 44.8°F7.1°C 49.1°F9.5°C 91% Calm Calm -- 30.10 in1019.3 mb 0.00 in0.0 mm 0.00 in0.0 mm 0.00 in0.0 mm
06:04 AM 44.8°F7.1°C 49.1°F9.5°C 91% Calm Calm -- 30.10 in1019.3 mb 0.00 in0.0 mm 0.00 in0.0 mm 0.00 in0.0 mm
06:07 AM 44.9°F7.2°C 49.5°F9.7°C 91% Calm Calm -- 30.10 in1019.3 mb 0.00 in0.0 mm 0.00 in0.0 mm 0.00 in0.0 mm
06:10 AM 44.9°F7.2°C 49.3°F9.6°C 91% Calm Calm -- 30.10 in1019.3 mb 0.00 in0.0 mm 0.00 in0.0 mm 0.00 in0.0 mm
06:13 AM 44.9°F7.2°C 49.4°F9.7°C 91% Calm Calm -- 30.10 in1019.3 mb 0.00 in0.0 mm 0.00 in0.0 mm 0.00 in0.0 mm
06:16 AM 44.8°F7.1°C 49.3°F9.6°C 91% Calm Calm -- 30.10 in1019.3 mb 0.00 in0.0 mm 0.00 in0.0 mm 0.00 in0.0 mm
06:19 AM 44.9°F7.2°C 49.2°F9.6°C 91% Calm Calm -- 30.10 in1019.3 mb 0.00 in0.0 mm 0.00 in0.0 mm 0.00 in0.0 mm
06:22 AM 44.8°F7.1°C 49.3°F9.6°C 91% Calm Calm -- 30.10 in1019.3 mb 0.00 in0.0 mm 0.00 in0.0 mm 0.00 in0.0 mm
06:25 AM 44.8°F7.1°C 49.1°F9.5°C 92% Calm Calm -- 30.10 in1019.3 mb 0.00 in0.0 mm 0.00 in0.0 mm 0.00 in0.0 mm
06:28 AM 44.9°F7.2°C 49.2°F9.6°C 92% Calm Calm -- 30.11 in1019.6 mb 0.00 in0.0 mm 0.00 in0.0 mm 0.00 in0.0 mm
06:31 AM 44.8°F7.1°C 49.0°F9.4°C 91% Calm Calm -- 30.11 in1019.6 mb 0.00 in0.0 mm 0.00 in0.0 mm 0.00 in0.0 mm
06:34 AM 44.9°F7.2°C 49.2°F9.6°C 92% Calm Calm -- 30.11 in1019.6 mb 0.00 in0.0 mm 0.00 in0.0 mm 0.00 in0.0 mm
06:37 AM 44.8°F7.1°C 49.1°F9.5°C 92% Calm Calm -- 30.11 in1019.6 mb 0.00 in0.0 mm 0.00 in0.0 mm 0.00 in0.0 mm
06:40 AM 44.8°F7.1°C 49.1°F9.5°C 92% Calm Calm -- 30.11 in1019.6 mb 0.00 in0.0 mm 0.00 in0.0 mm 0.00 in0.0 mm
06:43 AM 44.9°F7.2°C 49.1°F9.5°C 92% Calm Calm -- 30.11 in1019.6 mb 0.00 in0.0 mm 0.00 in0.0 mm 0.00 in0.0 mm
06:46 AM 44.8°F7.1°C 49.0°F9.4°C 91% Calm Calm -- 30.11 in1019.6 mb 0.00 in0.0 mm 0.00 in0.0 mm 0.00 in0.0 mm
06:49 AM 44.9°F7.2°C 49.2°F9.6°C 92% Calm Calm -- 30.11 in1019.6 mb 0.00 in0.0 mm 0.00 in0.0 mm 0.00 in0.0 mm
06:52 AM 44.9°F7.2°C 49.0°F9.4°C 92% Calm Calm -- 30.11 in1019.6 mb 0.00 in0.0 mm 0.00 in0.0 mm 0.00 in0.0 mm
06:55 AM 44.9°F7.2°C 49.1°F9.5°C 92% Calm Calm -- 30.11 in1019.6 mb 0.00 in0.0 mm 0.00 in0.0 mm 0.00 in0.0 mm
07:01 AM 44.9°F7.2°C 49.1°F9.5°C 92% Calm Calm -- 30.12 in1020.0 mb 0.00 in0.0 mm 0.00 in0.0 mm 0.00 in0.0 mm
07:04 AM 44.9°F7.2°C 49.2°F9.6°C 91% Calm Calm -- 30.12 in1020.0 mb 0.00 in0.0 mm 0.00 in0.0 mm 0.00 in0.0 mm
07:07 AM 44.9°F7.2°C 49.2°F9.6°C 92% Calm Calm -- 30.13 in1020.3 mb 0.00 in0.0 mm 0.00 in0.0 mm 0.00 in0.0 mm
07:10 AM 44.9°F7.2°C 49.2°F9.6°C 92% Calm Calm -- 30.13 in1020.3 mb 0.00 in0.0 mm 0.00 in0.0 mm 0.00 in0.0 mm
07:13 AM 44.9°F7.2°C 49.2°F9.6°C 91% Calm Calm -- 30.13 in1020.3 mb 0.00 in0.0 mm 0.00 in0.0 mm 0.00 in0.0 mm
07:16 AM 44.9°F7.2°C 49.1°F9.5°C 91% Calm Calm -- 30.13 in1020.3 mb 0.00 in0.0 mm 0.00 in0.0 mm 0.00 in0.0 mm
07:19 AM 45.1°F7.3°C 49.4°F9.7°C 92% Calm Calm -- 30.13 in1020.3 mb 0.00 in0.0 mm 0.00 in0.0 mm 0.00 in0.0 mm
07:22 AM 44.9°F7.2°C 49.4°F9.7°C 92% Calm Calm -- 30.13 in1020.3 mb 0.00 in0.0 mm 0.00 in0.0 mm 0.00 in0.0 mm
07:25 AM 45.1°F7.3°C 49.0°F9.4°C 91% Calm Calm -- 30.13 in1020.3 mb 0.00 in0.0 mm 0.00 in0.0 mm 0.00 in0.0 mm
07:28 AM 45.1°F7.3°C 49.4°F9.7°C 92% Calm Calm -- 30.13 in1020.3 mb 0.00 in0.0 mm 0.00 in0.0 mm 0.00 in0.0 mm
07:31 AM 45.2°F7.3°C 49.3°F9.6°C 91% Calm Calm -- 30.13 in1020.3 mb 0.00 in0.0 mm 0.00 in0.0 mm 0.00 in0.0 mm
07:34 AM 45.2°F7.3°C 49.2°F9.6°C 91% Calm Calm -- 30.13 in1020.3 mb 0.00 in0.0 mm 0.00 in0.0 mm 0.00 in0.0 mm
07:37 AM 45.2°F7.3°C 49.4°F9.7°C 91% Calm Calm -- 30.13 in1020.3 mb 0.00 in0.0 mm 0.00 in0.0 mm 0.00 in0.0 mm
07:40 AM 45.3°F7.4°C 49.2°F9.6°C 92% Calm Calm -- 30.13 in1020.3 mb 0.00 in0.0 mm 0.00 in0.0 mm 0.00 in0.0 mm
07:43 AM 45.4°F7.4°C 49.3°F9.6°C 91% Calm Calm -- 30.13 in1020.3 mb 0.00 in0.0 mm 0.00 in0.0 mm 0.00 in0.0 mm
07:46 AM 45.4°F7.4°C 49.5°F9.7°C 92% Calm Calm -- 30.14 in1020.7 mb 0.00 in0.0 mm 0.00 in0.0 mm 0.00 in0.0 mm
07:49 AM 45.4°F7.4°C 49.1°F9.5°C 91% Calm Calm -- 30.13 in1020.3 mb 0.00 in0.0 mm 0.00 in0.0 mm 0.00 in0.0 mm
07:52 AM 45.4°F7.4°C 49.3°F9.6°C 91% Calm Calm -- 30.14 in1020.7 mb 0.00 in0.0 mm 0.00 in0.0 mm 0.00 in0.0 mm
07:55 AM 45.4°F7.4°C 49.7°F9.8°C 92% Calm Calm -- 30.13 in1020.3 mb 0.00 in0.0 mm 0.00 in0.0 mm 0.00 in0.0 mm
07:58 AM 45.4°F7.4°C 49.4°F9.7°C 91% Calm Calm -- 30.13 in1020.3 mb 0.00 in0.0 mm 0.00 in0.0 mm 0.00 in0.0 mm
08:01 AM 45.5°F7.5°C 49.5°F9.7°C 92% Calm Calm -- 30.13 in1020.3 mb 0.00 in0.0 mm 0.00 in0.0 mm 0.00 in0.0 mm
08:04 AM 45.5°F7.5°C 49.6°F9.8°C 92% Calm Calm -- 30.14 in1020.7 mb 0.00 in0.0 mm 0.00 in0.0 mm 0.00 in0.0 mm
08:07 AM 45.5°F7.5°C 49.5°F9.7°C 91% Calm Calm -- 30.14 in1020.7 mb 0.00 in0.0 mm 0.00 in0.0 mm 0.00 in0.0 mm
08:10 AM 45.6°F7.6°C 49.4°F9.7°C 91% Calm Calm -- 30.14 in1020.7 mb 0.00 in0.0 mm 0.00 in0.0 mm 0.00 in0.0 mm
08:13 AM 45.6°F7.6°C 49.7°F9.8°C 91% Calm Calm -- 30.14 in1020.7 mb 0.00 in0.0 mm 0.00 in0.0 mm 0.00 in0.0 mm
08:16 AM 45.6°F7.6°C 49.5°F9.7°C 92% Calm Calm -- 30.14 in1020.7 mb 0.00 in0.0 mm 0.00 in0.0 mm 0.00 in0.0 mm
08:19 AM 45.6°F7.6°C 49.5°F9.7°C 91% Calm Calm -- 30.14 in1020.7 mb 0.00 in0.0 mm 0.00 in0.0 mm 0.00 in0.0 mm
08:22 AM 45.7°F7.6°C 49.8°F9.9°C 92% Calm Calm -- 30.14 in1020.7 mb 0.00 in0.0 mm 0.00 in0.0 mm 0.00 in0.0 mm
08:25 AM 45.8°F7.7°C 49.6°F9.8°C 91% Calm Calm -- 30.14 in1020.7 mb 0.00 in0.0 mm 0.00 in0.0 mm 0.00 in0.0 mm
08:28 AM 46.0°F7.8°C 49.6°F9.8°C 91% Calm Calm -- 30.14 in1020.7 mb 0.00 in0.0 mm 0.00 in0.0 mm 0.00 in0.0 mm
08:31 AM 46.2°F7.9°C 49.9°F9.9°C 91% Calm Calm -- 30.14 in1020.7 mb 0.00 in0.0 mm 0.00 in0.0 mm 0.00 in0.0 mm
08:34 AM 46.3°F7.9°C 50.0°F10.0°C 92% Calm Calm -- 30.14 in1020.7 mb 0.00 in0.0 mm 0.00 in0.0 mm 0.00 in0.0 mm
08:37 AM 46.4°F8.0°C 49.8°F9.9°C 91% Calm Calm -- 30.14 in1020.7 mb 0.00 in0.0 mm 0.00 in0.0 mm 0.00 in0.0 mm
08:40 AM 46.4°F8.0°C 50.1°F10.1°C 92% Calm Calm -- 30.14 in1020.7 mb 0.00 in0.0 mm 0.00 in0.0 mm 0.00 in0.0 mm
08:43 AM 46.6°F8.1°C 50.0°F10.0°C 92% Calm Calm -- 30.15 in1021.0 mb 0.00 in0.0 mm 0.00 in0.0 mm 0.00 in0.0 mm
08:46 AM 46.7°F8.2°C 50.2°F10.1°C 92% Calm Calm -- 30.15 in1021.0 mb 0.00 in0.0 mm 0.00 in0.0 mm 0.00 in0.0 mm
08:49 AM 46.7°F8.2°C 50.2°F10.1°C 92% Calm Calm -- 30.15 in1021.0 mb 0.00 in0.0 mm 0.00 in0.0 mm 0.00 in0.0 mm
08:52 AM 47.0°F8.3°C 50.4°F10.2°C 92% Calm Calm -- 30.15 in1021.0 mb 0.00 in0.0 mm 0.00 in0.0 mm 0.00 in0.0 mm
08:55 AM 46.9°F8.3°C 50.2°F10.1°C 92% Calm Calm -- 30.15 in1021.0 mb 0.00 in0.0 mm 0.00 in0.0 mm 0.00 in0.0 mm
08:58 AM 46.9°F8.3°C 50.4°F10.2°C 92% Calm Calm -- 30.15 in1021.0 mb 0.00 in0.0 mm 0.00 in0.0 mm 0.00 in0.0 mm
09:01 AM 46.9°F8.3°C 50.5°F10.3°C 92% Calm Calm -- 30.16 in1021.3 mb 0.00 in0.0 mm 0.00 in0.0 mm 0.00 in0.0 mm
09:04 AM 46.9°F8.3°C 50.4°F10.2°C 92% Calm Calm -- 30.16 in1021.3 mb 0.00 in0.0 mm 0.00 in0.0 mm 0.00 in0.0 mm
09:07 AM 46.9°F8.3°C 50.6°F10.3°C 92% Calm Calm -- 30.16 in1021.3 mb 0.00 in0.0 mm 0.00 in0.0 mm 0.00 in0.0 mm
09:10 AM 47.0°F8.3°C 50.1°F10.1°C 90% Calm Calm -- 30.16 in1021.3 mb 0.00 in0.0 mm 0.00 in0.0 mm 0.00 in0.0 mm
09:13 AM 47.0°F8.3°C 50.3°F10.2°C 92% Calm Calm -- 30.16 in1021.3 mb 0.00 in0.0 mm 0.00 in0.0 mm 0.00 in0.0 mm
09:16 AM 46.9°F8.3°C 50.3°F10.2°C 91% Calm Calm -- 30.16 in1021.3 mb 0.00 in0.0 mm 0.00 in0.0 mm 0.00 in0.0 mm
09:19 AM 47.0°F8.3°C 50.6°F10.3°C 92% Calm Calm -- 30.16 in1021.3 mb 0.00 in0.0 mm 0.00 in0.0 mm 0.00 in0.0 mm
09:22 AM 46.9°F8.3°C 50.5°F10.3°C 91% Calm Calm -- 30.16 in1021.3 mb 0.00 in0.0 mm 0.00 in0.0 mm 0.00 in0.0 mm
09:25 AM 47.1°F8.4°C 50.4°F10.2°C 91% Calm Calm -- 30.16 in1021.3 mb 0.00 in0.0 mm 0.00 in0.0 mm 0.00 in0.0 mm
09:28 AM 47.0°F8.3°C 50.6°F10.3°C 91% Calm Calm -- 30.16 in1021.3 mb 0.00 in0.0 mm 0.00 in0.0 mm 0.00 in0.0 mm
09:31 AM 47.0°F8.3°C 50.6°F10.3°C 92% Calm Calm -- 30.16 in1021.3 mb 0.00 in0.0 mm 0.00 in0.0 mm 0.00 in0.0 mm
09:34 AM 47.1°F8.4°C 50.4°F10.2°C 90% Calm Calm -- 30.16 in1021.3 mb 0.00 in0.0 mm 0.00 in0.0 mm 0.00 in0.0 mm
09:37 AM 47.2°F8.4°C 50.6°F10.3°C 92% Calm Calm -- 30.16 in1021.3 mb 0.00 in0.0 mm 0.00 in0.0 mm 0.00 in0.0 mm
09:40 AM 47.1°F8.4°C 50.9°F10.5°C 92% Calm Calm -- 30.16 in1021.3 mb 0.00 in0.0 mm 0.00 in0.0 mm 0.00 in0.0 mm
09:43 AM 47.1°F8.4°C 50.3°F10.2°C 90% Calm Calm -- 30.16 in1021.3 mb 0.00 in0.0 mm 0.00 in0.0 mm 0.00 in0.0 mm
09:46 AM 47.1°F8.4°C 50.7°F10.4°C 91% Calm Calm -- 30.16 in1021.3 mb 0.00 in0.0 mm 0.00 in0.0 mm 0.00 in0.0 mm
09:49 AM 47.2°F8.4°C 50.7°F10.4°C 92% Calm Calm -- 30.16 in1021.3 mb 0.00 in0.0 mm 0.00 in0.0 mm 0.00 in0.0 mm
09:52 AM 47.3°F8.5°C 50.8°F10.4°C 92% Calm Calm -- 30.16 in1021.3 mb 0.00 in0.0 mm 0.00 in0.0 mm 0.00 in0.0 mm
09:55 AM 47.3°F8.5°C 50.7°F10.4°C 91% Calm Calm -- 30.16 in1021.3 mb 0.00 in0.0 mm 0.00 in0.0 mm 0.00 in0.0 mm
09:58 AM 47.5°F8.6°C 50.6°F10.3°C 91% Calm Calm -- 30.16 in1021.3 mb 0.00 in0.0 mm 0.00 in0.0 mm 0.00 in0.0 mm
10:01 AM 47.5°F8.6°C 50.5°F10.3°C 90% Calm Calm -- 30.16 in1021.3 mb 0.00 in0.0 mm 0.00 in0.0 mm 0.00 in0.0 mm
10:04 AM 47.6°F8.7°C 51.0°F10.6°C 92% Calm Calm -- 30.16 in1021.3 mb 0.00 in0.0 mm 0.00 in0.0 mm 0.00 in0.0 mm
10:07 AM 47.9°F8.8°C 51.2°F10.7°C 91% Calm Calm -- 30.16 in1021.3 mb 0.00 in0.0 mm 0.00 in0.0 mm 0.00 in0.0 mm
10:10 AM 48.1°F8.9°C 50.8°F10.4°C 90% Calm Calm -- 30.16 in1021.3 mb 0.00 in0.0 mm 0.00 in0.0 mm 0.00 in0.0 mm
10:13 AM 47.9°F8.8°C 51.0°F10.6°C 91% Calm Calm -- 30.16 in1021.3 mb 0.00 in0.0 mm 0.00 in0.0 mm 0.00 in0.0 mm
10:16 AM 47.9°F8.8°C 51.1°F10.6°C 91% Calm Calm -- 30.16 in1021.3 mb 0.00 in0.0 mm 0.00 in0.0 mm 0.00 in0.0 mm
10:19 AM 47.9°F8.8°C 50.9°F10.5°C 91% Calm Calm -- 30.16 in1021.3 mb 0.00 in0.0 mm 0.00 in0.0 mm 0.00 in0.0 mm
10:22 AM 48.2°F9.0°C 51.2°F10.7°C 91% Calm Calm -- 30.16 in1021.3 mb 0.00 in0.0 mm 0.00 in0.0 mm 0.00 in0.0 mm
10:25 AM 48.2°F9.0°C 51.2°F10.7°C 91% Calm Calm -- 30.16 in1021.3 mb 0.00 in0.0 mm 0.00 in0.0 mm 0.00 in0.0 mm
10:28 AM 48.4°F9.1°C 51.0°F10.6°C 91% Calm Calm -- 30.16 in1021.3 mb 0.00 in0.0 mm 0.00 in0.0 mm 0.00 in0.0 mm
10:31 AM 48.3°F9.1°C 50.9°F10.5°C 90% Calm Calm -- 30.16 in1021.3 mb 0.00 in0.0 mm 0.00 in0.0 mm 0.00 in0.0 mm
10:34 AM 48.5°F9.2°C 51.4°F10.8°C 91% Calm Calm -- 30.16 in1021.3 mb 0.00 in0.0 mm 0.00 in0.0 mm 0.00 in0.0 mm
10:37 AM 48.5°F9.2°C 51.5°F10.8°C 91% Calm Calm -- 30.16 in1021.3 mb 0.00 in0.0 mm 0.00 in0.0 mm 0.00 in0.0 mm
10:40 AM 48.7°F9.3°C 51.3°F10.7°C 91% Calm Calm -- 30.17 in1021.7 mb 0.00 in0.0 mm 0.00 in0.0 mm 0.00 in0.0 mm
10:43 AM 48.9°F9.4°C 51.0°F10.6°C 90% Calm Calm -- 30.16 in1021.3 mb 0.00 in0.0 mm 0.00 in0.0 mm 0.00 in0.0 mm
10:46 AM 49.0°F9.4°C 51.7°F10.9°C 91% Calm Calm -- 30.16 in1021.3 mb 0.00 in0.0 mm 0.00 in0.0 mm 0.00 in0.0 mm
10:49 AM 49.6°F9.8°C 51.8°F11.0°C 91% Calm Calm -- 30.17 in1021.7 mb 0.00 in0.0 mm 0.00 in0.0 mm 0.00 in0.0 mm
10:52 AM 49.9°F9.9°C 51.9°F11.1°C 91% Calm Calm -- 30.17 in1021.7 mb 0.00 in0.0 mm 0.00 in0.0 mm 0.00 in0.0 mm
10:55 AM 50.1°F10.1°C 52.1°F11.2°C 91% Calm Calm -- 30.17 in1021.7 mb 0.00 in0.0 mm 0.00 in0.0 mm 0.00 in0.0 mm
10:58 AM 50.2°F10.1°C 52.3°F11.3°C 91% Calm Calm -- 30.17 in1021.7 mb 0.00 in0.0 mm 0.00 in0.0 mm 0.00 in0.0 mm
11:01 AM 50.9°F10.5°C 52.4°F11.3°C 92% 0.8 mph SW1.3 kmh SW 0.8 mph1.3 kmh 30.17 in1021.7 mb 0.00 in0.0 mm 0.00 in0.0 mm 0.00 in0.0 mm
11:04 AM 51.7°F10.9°C 52.9°F11.6°C 92% 0.4 mph NNW0.6 kmh NNW 0.4 mph0.6 kmh 30.16 in1021.3 mb 0.00 in0.0 mm 0.00 in0.0 mm 0.00 in0.0 mm
11:07 AM 52.1°F11.2°C 53.3°F11.8°C 92% 0.4 mph NNW0.6 kmh NNW 0.4 mph0.6 kmh 30.17 in1021.7 mb 0.00 in0.0 mm 0.00 in0.0 mm 0.00 in0.0 mm
11:10 AM 51.6°F10.9°C 53.0°F11.7°C 90% Calm Calm -- 30.16 in1021.3 mb 0.00 in0.0 mm 0.00 in0.0 mm 0.00 in0.0 mm
11:13 AM 52.6°F11.4°C 53.5°F11.9°C 91% Calm Calm -- 30.16 in1021.3 mb 0.00 in0.0 mm 0.00 in0.0 mm 0.00 in0.0 mm
11:16 AM 52.6°F11.4°C 53.5°F11.9°C 91% Calm Calm -- 30.17 in1021.7 mb 0.00 in0.0 mm 0.00 in0.0 mm 0.00 in0.0 mm
11:19 AM 52.8°F11.6°C 53.6°F12.0°C 91% Calm Calm -- 30.16 in1021.3 mb 0.00 in0.0 mm 0.00 in0.0 mm 0.00 in0.0 mm
11:22 AM 52.5°F11.4°C 53.8°F12.1°C 90% Calm Calm -- 30.16 in1021.3 mb 0.00 in0.0 mm 0.00 in0.0 mm 0.00 in0.0 mm
11:25 AM 52.8°F11.6°C 53.8°F12.1°C 90% Calm Calm -- 30.16 in1021.3 mb 0.00 in0.0 mm 0.00 in0.0 mm 0.00 in0.0 mm
11:28 AM 52.5°F11.4°C 53.8°F12.1°C 90% Calm Calm -- 30.16 in1021.3 mb 0.00 in0.0 mm 0.00 in0.0 mm 0.00 in0.0 mm
11:31 AM 52.4°F11.3°C 53.7°F12.1°C 89% 1.6 mph WSW2.6 kmh WSW 1.6 mph2.6 kmh 30.16 in1021.3 mb 0.00 in0.0 mm 0.00 in0.0 mm 0.00 in0.0 mm
11:34 AM 52.4°F11.3°C 53.7°F12.1°C 89% 2.0 mph NNW3.2 kmh NNW 2.0 mph3.2 kmh 30.17 in1021.7 mb 0.00 in0.0 mm 0.00 in0.0 mm 0.00 in0.0 mm
11:37 AM 51.9°F11.1°C 53.4°F11.9°C 88% 0.4 mph W0.6 kmh W 0.4 mph0.6 kmh 30.16 in1021.3 mb 0.00 in0.0 mm 0.00 in0.0 mm 0.00 in0.0 mm
11:40 AM 51.9°F11.1°C 53.3°F11.8°C 87% 2.0 mph W3.2 kmh W 2.0 mph3.2 kmh 30.16 in1021.3 mb 0.00 in0.0 mm 0.00 in0.0 mm 0.00 in0.0 mm
11:43 AM 52.1°F11.2°C 53.6°F12.0°C 89% 2.3 mph NNW3.7 kmh NNW 2.4 mph3.9 kmh 30.16 in1021.3 mb 0.00 in0.0 mm 0.00 in0.0 mm 0.00 in0.0 mm
11:46 AM 52.5°F11.4°C 53.8°F12.1°C 89% 1.1 mph NW1.8 kmh NW 1.2 mph1.9 kmh 30.16 in1021.3 mb 0.00 in0.0 mm 0.00 in0.0 mm 0.00 in0.0 mm
11:49 AM 52.6°F11.4°C 53.4°F11.9°C 88% Calm Calm -- 30.16 in1021.3 mb 0.00 in0.0 mm 0.00 in0.0 mm 0.00 in0.0 mm
11:52 AM 52.0°F11.1°C 53.7°F12.1°C 88% Calm Calm -- 30.16 in1021.3 mb 0.00 in0.0 mm 0.00 in0.0 mm 0.00 in0.0 mm
11:55 AM 51.2°F10.7°C 53.4°F11.9°C 88% Calm Calm -- 30.16 in1021.3 mb 0.00 in0.0 mm 0.00 in0.0 mm 0.00 in0.0 mm
11:58 AM 51.5°F10.8°C 53.3°F11.8°C 87% 1.2 mph WNW1.9 kmh WNW 1.2 mph1.9 kmh 30.16 in1021.3 mb 0.00 in0.0 mm 0.00 in0.0 mm 0.00 in0.0 mm
12:01 PM 51.5°F10.8°C 53.1°F11.7°C 87% Calm Calm -- 30.16 in1021.3 mb 0.00 in0.0 mm 0.00 in0.0 mm 0.00 in0.0 mm
12:04 PM 51.6°F10.9°C 53.3°F11.8°C 88% Calm Calm -- 30.16 in1021.3 mb 0.00 in0.0 mm 0.00 in0.0 mm 0.00 in0.0 mm
12:07 PM 51.6°F10.9°C 53.3°F11.8°C 87% Calm Calm -- 30.16 in1021.3 mb 0.00 in0.0 mm 0.00 in0.0 mm 0.00 in0.0 mm
12:10 PM 51.2°F10.7°C 53.3°F11.8°C 87% Calm Calm -- 30.16 in1021.3 mb 0.00 in0.0 mm 0.00 in0.0 mm 0.00 in0.0 mm
12:13 PM 50.9°F10.5°C 53.2°F11.8°C 87% Calm Calm -- 30.16 in1021.3 mb 0.00 in0.0 mm 0.00 in0.0 mm 0.00 in0.0 mm
12:16 PM 51.8°F11.0°C 53.3°F11.8°C 87% Calm Calm -- 30.16 in1021.3 mb 0.00 in0.0 mm 0.00 in0.0 mm 0.00 in0.0 mm
12:19 PM 51.4°F10.8°C 53.2°F11.8°C 87% Calm Calm -- 30.16 in1021.3 mb 0.00 in0.0 mm 0.00 in0.0 mm 0.00 in0.0 mm
12:22 PM 52.1°F11.2°C 53.3°F11.8°C 87% Calm Calm -- 30.16 in1021.3 mb 0.00 in0.0 mm 0.00 in0.0 mm 0.00 in0.0 mm
12:25 PM 52.4°F11.3°C 53.3°F11.8°C 87% Calm Calm -- 30.16 in1021.3 mb 0.00 in0.0 mm 0.00 in0.0 mm 0.00 in0.0 mm
12:28 PM 52.5°F11.4°C 53.6°F12.0°C 87% Calm Calm -- 30.16 in1021.3 mb 0.00 in0.0 mm 0.00 in0.0 mm 0.00 in0.0 mm
12:31 PM 52.3°F11.3°C 53.5°F11.9°C 86% Calm Calm -- 30.16 in1021.3 mb 0.00 in0.0 mm 0.00 in0.0 mm 0.00 in0.0 mm
12:34 PM 52.0°F11.1°C 53.5°F11.9°C 86% Calm Calm -- 30.16 in1021.3 mb 0.00 in0.0 mm 0.00 in0.0 mm 0.00 in0.0 mm
12:37 PM 51.7°F10.9°C 53.4°F11.9°C 86% Calm Calm -- 30.16 in1021.3 mb 0.00 in0.0 mm 0.00 in0.0 mm 0.00 in0.0 mm
12:40 PM 52.0°F11.1°C 53.1°F11.7°C 85% Calm Calm -- 30.16 in1021.3 mb 0.00 in0.0 mm 0.00 in0.0 mm 0.00 in0.0 mm
12:43 PM 51.7°F10.9°C 53.4°F11.9°C 86% Calm Calm -- 30.16 in1021.3 mb 0.00 in0.0 mm 0.00 in0.0 mm 0.00 in0.0 mm
12:46 PM 51.5°F10.8°C 53.5°F11.9°C 86% Calm Calm -- 30.16 in1021.3 mb 0.00 in0.0 mm 0.00 in0.0 mm 0.00 in0.0 mm
12:49 PM 52.0°F11.1°C 53.5°F11.9°C 86% Calm Calm -- 30.15 in1021.0 mb 0.00 in0.0 mm 0.00 in0.0 mm 0.00 in0.0 mm
12:52 PM 52.6°F11.4°C 53.6°F12.0°C 86% Calm Calm -- 30.16 in1021.3 mb 0.00 in0.0 mm 0.00 in0.0 mm 0.00 in0.0 mm
12:55 PM 52.6°F11.4°C 53.6°F12.0°C 86% Calm Calm -- 30.16 in1021.3 mb 0.00 in0.0 mm 0.00 in0.0 mm 0.00 in0.0 mm
12:58 PM 52.5°F11.4°C 53.9°F12.2°C 86% Calm Calm -- 30.16 in1021.3 mb 0.00 in0.0 mm 0.00 in0.0 mm 0.00 in0.0 mm
01:01 PM 52.7°F11.5°C 54.0°F12.2°C 86% Calm Calm -- 30.16 in1021.3 mb 0.00 in0.0 mm 0.00 in0.0 mm 0.00 in0.0 mm
01:04 PM 52.7°F11.5°C 53.8°F12.1°C 86% 0.4 mph NNW0.6 kmh NNW 0.4 mph0.6 kmh 30.16 in1021.3 mb 0.00 in0.0 mm 0.00 in0.0 mm 0.00 in0.0 mm
01:07 PM 52.5°F11.4°C 53.9°F12.2°C 85% 0.8 mph SW1.3 kmh SW 0.8 mph1.3 kmh 30.15 in1021.0 mb 0.00 in0.0 mm 0.00 in0.0 mm 0.00 in0.0 mm
01:10 PM 52.7°F11.5°C 53.7°F12.1°C 85% Calm Calm -- 30.15 in1021.0 mb 0.00 in0.0 mm 0.00 in0.0 mm 0.00 in0.0 mm
01:13 PM 53.2°F11.8°C 54.0°F12.2°C 85% Calm Calm -- 30.15 in1021.0 mb 0.00 in0.0 mm 0.00 in0.0 mm 0.00 in0.0 mm
01:16 PM 52.7°F11.5°C 53.9°F12.2°C 85% Calm Calm -- 30.15 in1021.0 mb 0.00 in0.0 mm 0.00 in0.0 mm 0.00 in0.0 mm
01:19 PM 53.2°F11.8°C 53.8°F12.1°C 85% Calm Calm -- 30.15 in1021.0 mb 0.00 in0.0 mm 0.00 in0.0 mm 0.00 in0.0 mm
01:22 PM 52.6°F11.4°C 53.7°F12.1°C 84% Calm Calm -- 30.16 in1021.3 mb 0.00 in0.0 mm 0.00 in0.0 mm 0.00 in0.0 mm
01:25 PM 52.5°F11.4°C 53.7°F12.1°C 84% Calm Calm -- 30.16 in1021.3 mb 0.00 in0.0 mm 0.00 in0.0 mm 0.00 in0.0 mm
01:28 PM 52.1°F11.2°C 53.9°F12.2°C 85% Calm Calm -- 30.16 in1021.3 mb 0.00 in0.0 mm 0.00 in0.0 mm 0.00 in0.0 mm
01:31 PM 52.4°F11.3°C 53.9°F12.2°C 85% Calm Calm -- 30.15 in1021.0 mb 0.00 in0.0 mm 0.00 in0.0 mm 0.00 in0.0 mm
01:34 PM 52.5°F11.4°C 53.5°F11.9°C 84% Calm Calm -- 30.15 in1021.0 mb 0.00 in0.0 mm 0.00 in0.0 mm 0.00 in0.0 mm
01:37 PM 52.0°F11.1°C 53.6°F12.0°C 84% 1.2 mph SW1.9 kmh SW 1.2 mph1.9 kmh 30.16 in1021.3 mb 0.00 in0.0 mm 0.00 in0.0 mm 0.00 in0.0 mm
01:40 PM 52.0°F11.1°C 53.7°F12.1°C 84% Calm Calm -- 30.16 in1021.3 mb 0.00 in0.0 mm 0.00 in0.0 mm 0.00 in0.0 mm
01:43 PM 52.4°F11.3°C 53.5°F11.9°C 84% 0.4 mph NNW0.6 kmh NNW 0.4 mph0.6 kmh 30.15 in1021.0 mb 0.00 in0.0 mm 0.00 in0.0 mm 0.00 in0.0 mm
01:46 PM 52.4°F11.3°C 53.7°F12.1°C 84% Calm Calm -- 30.15 in1021.0 mb 0.00 in0.0 mm 0.00 in0.0 mm 0.00 in0.0 mm
01:49 PM 52.0°F11.1°C 53.5°F11.9°C 84% Calm Calm -- 30.15 in1021.0 mb 0.00 in0.0 mm 0.00 in0.0 mm 0.00 in0.0 mm
01:52 PM 51.8°F11.0°C 53.6°F12.0°C 84% Calm Calm -- 30.15 in1021.0 mb 0.00 in0.0 mm 0.00 in0.0 mm 0.00 in0.0 mm
01:55 PM 52.3°F11.3°C 53.4°F11.9°C 83% Calm Calm -- 30.15 in1021.0 mb 0.00 in0.0 mm 0.00 in0.0 mm 0.00 in0.0 mm
01:58 PM 52.5°F11.4°C 53.8°F12.1°C 84% Calm Calm -- 30.14 in1020.7 mb 0.00 in0.0 mm 0.00 in0.0 mm 0.00 in0.0 mm
02:01 PM 52.5°F11.4°C 53.7°F12.1°C 84% Calm Calm -- 30.15 in1021.0 mb 0.00 in0.0 mm 0.00 in0.0 mm 0.00 in0.0 mm
02:04 PM 52.5°F11.4°C 53.8°F12.1°C 84% Calm Calm -- 30.15 in1021.0 mb 0.00 in0.0 mm 0.00 in0.0 mm 0.00 in0.0 mm
02:07 PM 52.0°F11.1°C 53.7°F12.1°C 83% Calm Calm -- 30.14 in1020.7 mb 0.00 in0.0 mm 0.00 in0.0 mm 0.00 in0.0 mm
02:10 PM 52.0°F11.1°C 53.4°F11.9°C 83% Calm Calm -- 30.14 in1020.7 mb 0.00 in0.0 mm 0.00 in0.0 mm 0.00 in0.0 mm
02:13 PM 52.0°F11.1°C 53.5°F11.9°C 83% Calm Calm -- 30.14 in1020.7 mb 0.00 in0.0 mm 0.00 in0.0 mm 0.00 in0.0 mm
02:16 PM 52.0°F11.1°C 53.5°F11.9°C 83% Calm Calm -- 30.14 in1020.7 mb 0.00 in0.0 mm 0.00 in0.0 mm 0.00 in0.0 mm
02:19 PM 51.8°F11.0°C 53.6°F12.0°C 83% Calm Calm -- 30.14 in1020.7 mb 0.00 in0.0 mm 0.00 in0.0 mm 0.00 in0.0 mm
02:22 PM 51.6°F10.9°C 53.6°F12.0°C 83% Calm Calm -- 30.14 in1020.7 mb 0.00 in0.0 mm 0.00 in0.0 mm 0.00 in0.0 mm
02:25 PM 51.6°F10.9°C 52.9°F11.6°C 82% Calm Calm -- 30.14 in1020.7 mb 0.00 in0.0 mm 0.00 in0.0 mm 0.00 in0.0 mm
02:28 PM 51.4°F10.8°C 53.2°F11.8°C 83% Calm Calm -- 30.14 in1020.7 mb 0.00 in0.0 mm 0.00 in0.0 mm 0.00 in0.0 mm
02:31 PM 51.5°F10.8°C 53.4°F11.9°C 83% Calm Calm -- 30.14 in1020.7 mb 0.00 in0.0 mm 0.00 in0.0 mm 0.00 in0.0 mm
02:34 PM 51.4°F10.8°C 53.4°F11.9°C 83% Calm Calm -- 30.15 in1021.0 mb 0.00 in0.0 mm 0.00 in0.0 mm 0.00 in0.0 mm
02:37 PM 51.4°F10.8°C 53.2°F11.8°C 84% Calm Calm -- 30.14 in1020.7 mb 0.00 in0.0 mm 0.00 in0.0 mm 0.00 in0.0 mm
02:40 PM 51.5°F10.8°C 53.1°F11.7°C 84% Calm Calm -- 30.14 in1020.7 mb 0.00 in0.0 mm 0.00 in0.0 mm 0.00 in0.0 mm
02:43 PM 51.4°F10.8°C 53.2°F11.8°C 84% Calm Calm -- 30.14 in1020.7 mb 0.00 in0.0 mm 0.00 in0.0 mm 0.00 in0.0 mm
02:46 PM 51.2°F10.7°C 52.9°F11.6°C 83% Calm Calm -- 30.14 in1020.7 mb 0.00 in0.0 mm 0.00 in0.0 mm 0.00 in0.0 mm
02:49 PM 51.1°F10.6°C 53.0°F11.7°C 84% Calm Calm -- 30.14 in1020.7 mb 0.00 in0.0 mm 0.00 in0.0 mm 0.00 in0.0 mm
02:52 PM 51.1°F10.6°C 53.2°F11.8°C 84% 2.7 mph SE4.3 kmh SE 2.7 mph4.3 kmh 30.14 in1020.7 mb 0.00 in0.0 mm 0.00 in0.0 mm 0.00 in0.0 mm
02:55 PM 51.1°F10.6°C 53.1°F11.7°C 84% 0.8 mph SE1.3 kmh SE 0.8 mph1.3 kmh 30.14 in1020.7 mb 0.00 in0.0 mm 0.00 in0.0 mm 0.00 in0.0 mm
02:58 PM 51.1°F10.6°C 53.2°F11.8°C 85% 1.9 mph NNW3.1 kmh NNW 1.9 mph3.1 kmh 30.13 in1020.3 mb 0.00 in0.0 mm 0.00 in0.0 mm 0.00 in0.0 mm
03:01 PM 51.0°F10.6°C 53.1°F11.7°C 85% Calm Calm -- 30.13 in1020.3 mb 0.00 in0.0 mm 0.00 in0.0 mm 0.00 in0.0 mm
03:04 PM 51.0°F10.6°C 53.0°F11.7°C 84% Calm Calm -- 30.14 in1020.7 mb 0.00 in0.0 mm 0.00 in0.0 mm 0.00 in0.0 mm
03:07 PM 51.1°F10.6°C 53.0°F11.7°C 85% Calm Calm -- 30.14 in1020.7 mb 0.00 in0.0 mm 0.00 in0.0 mm 0.00 in0.0 mm
03:10 PM 51.1°F10.6°C 53.1°F11.7°C 84% Calm Calm -- 30.13 in1020.3 mb 0.00 in0.0 mm 0.00 in0.0 mm 0.00 in0.0 mm
03:13 PM 51.4°F10.8°C 53.3°F11.8°C 85% 0.8 mph NNW1.3 kmh NNW 0.8 mph1.3 kmh 30.13 in1020.3 mb 0.00 in0.0 mm 0.00 in0.0 mm 0.00 in0.0 mm
03:16 PM 51.4°F10.8°C 53.3°F11.8°C 84% Calm Calm -- 30.14 in1020.7 mb 0.00 in0.0 mm 0.00 in0.0 mm 0.00 in0.0 mm
03:19 PM 51.5°F10.8°C 53.4°F11.9°C 85% Calm Calm -- 30.14 in1020.7 mb 0.00 in0.0 mm 0.00 in0.0 mm 0.00 in0.0 mm
03:22 PM 51.6°F10.9°C 53.3°F11.8°C 85% Calm Calm -- 30.14 in1020.7 mb 0.00 in0.0 mm 0.00 in0.0 mm 0.00 in0.0 mm
03:25 PM 51.5°F10.8°C 53.0°F11.7°C 84% Calm Calm -- 30.13 in1020.3 mb 0.00 in0.0 mm 0.00 in0.0 mm 0.00 in0.0 mm
03:28 PM 51.6°F10.9°C 52.9°F11.6°C 84% Calm Calm -- 30.13 in1020.3 mb 0.00 in0.0 mm 0.00 in0.0 mm 0.00 in0.0 mm
03:31 PM 51.6°F10.9°C 53.2°F11.8°C 84% Calm Calm -- 30.13 in1020.3 mb 0.00 in0.0 mm 0.00 in0.0 mm 0.00 in0.0 mm
03:34 PM 51.5°F10.8°C 53.2°F11.8°C 84% Calm Calm -- 30.13 in1020.3 mb 0.00 in0.0 mm 0.00 in0.0 mm 0.00 in0.0 mm
03:37 PM 51.2°F10.7°C 53.2°F11.8°C 84% Calm Calm -- 30.13 in1020.3 mb 0.00 in0.0 mm 0.00 in0.0 mm 0.00 in0.0 mm
03:40 PM 51.2°F10.7°C 53.1°F11.7°C 84% Calm Calm -- 30.13 in1020.3 mb 0.00 in0.0 mm 0.00 in0.0 mm 0.00 in0.0 mm
03:43 PM 51.2°F10.7°C 53.1°F11.7°C 84% Calm Calm -- 30.13 in1020.3 mb 0.00 in0.0 mm 0.00 in0.0 mm 0.00 in0.0 mm
03:46 PM 51.4°F10.8°C 53.3°F11.8°C 84% Calm Calm -- 30.13 in1020.3 mb 0.00 in0.0 mm 0.00 in0.0 mm 0.00 in0.0 mm
03:49 PM 51.2°F10.7°C 53.1°F11.7°C 84% Calm Calm -- 30.13 in1020.3 mb 0.00 in0.0 mm 0.00 in0.0 mm 0.00 in0.0 mm
03:52 PM 51.4°F10.8°C 53.3°F11.8°C 84% Calm Calm -- 30.13 in1020.3 mb 0.00 in0.0 mm 0.00 in0.0 mm 0.00 in0.0 mm
03:55 PM 51.5°F10.8°C 53.3°F11.8°C 84% 0.4 mph SW0.6 kmh SW 0.4 mph0.6 kmh 30.12 in1020.0 mb 0.00 in0.0 mm 0.00 in0.0 mm 0.00 in0.0 mm
03:58 PM 51.4°F10.8°C 53.5°F11.9°C 84% 0.8 mph SW1.3 kmh SW 0.8 mph1.3 kmh 30.13 in1020.3 mb 0.00 in0.0 mm 0.00 in0.0 mm 0.00 in0.0 mm
04:01 PM 51.2°F10.7°C 53.4°F11.9°C 84% 0.8 mph WSW1.3 kmh WSW 0.8 mph1.3 kmh 30.13 in1020.3 mb 0.00 in0.0 mm 0.00 in0.0 mm 0.00 in0.0 mm
04:04 PM 51.0°F10.6°C 53.0°F11.7°C 84% Calm Calm -- 30.13 in1020.3 mb 0.00 in0.0 mm 0.00 in0.0 mm 0.00 in0.0 mm
04:07 PM 50.9°F10.5°C 53.1°F11.7°C 84% Calm Calm -- 30.13 in1020.3 mb 0.00 in0.0 mm 0.00 in0.0 mm 0.00 in0.0 mm
04:10 PM 50.8°F10.4°C 53.0°F11.7°C 84% Calm Calm -- 30.13 in1020.3 mb 0.00 in0.0 mm 0.00 in0.0 mm 0.00 in0.0 mm
04:13 PM 50.6°F10.3°C 53.0°F11.7°C 84% 0.8 mph NNW1.3 kmh NNW 0.8 mph1.3 kmh 30.13 in1020.3 mb 0.00 in0.0 mm 0.00 in0.0 mm 0.00 in0.0 mm
04:16 PM 50.5°F10.3°C 53.0°F11.7°C 84% Calm Calm -- 30.13 in1020.3 mb 0.00 in0.0 mm 0.00 in0.0 mm 0.00 in0.0 mm
04:19 PM 50.3°F10.2°C 53.1°F11.7°C 84% Calm Calm -- 30.13 in1020.3 mb 0.00 in0.0 mm 0.00 in0.0 mm 0.00 in0.0 mm
04:22 PM 50.2°F10.1°C 53.0°F11.7°C 84% Calm Calm -- 30.13 in1020.3 mb 0.00 in0.0 mm 0.00 in0.0 mm 0.00 in0.0 mm
04:25 PM 50.2°F10.1°C 52.9°F11.6°C 84% Calm Calm -- 30.13 in1020.3 mb 0.00 in0.0 mm 0.00 in0.0 mm 0.00 in0.0 mm
04:28 PM 50.1°F10.1°C 53.0°F11.7°C 84% Calm Calm -- 30.13 in1020.3 mb 0.00 in0.0 mm 0.00 in0.0 mm 0.00 in0.0 mm
04:31 PM 50.1°F10.1°C 52.7°F11.5°C 84% Calm Calm -- 30.13 in1020.3 mb 0.00 in0.0 mm 0.00 in0.0 mm 0.00 in0.0 mm
04:34 PM 50.0°F10.0°C 52.9°F11.6°C 84% Calm Calm -- 30.13 in1020.3 mb 0.00 in0.0 mm 0.00 in0.0 mm 0.00 in0.0 mm
04:37 PM 50.0°F10.0°C 52.7°F11.5°C 84% Calm Calm -- 30.13 in1020.3 mb 0.00 in0.0 mm 0.00 in0.0 mm 0.00 in0.0 mm
04:40 PM 49.7°F9.8°C 52.6°F11.4°C 84% Calm Calm -- 30.13 in1020.3 mb 0.00 in0.0 mm 0.00 in0.0 mm 0.00 in0.0 mm
04:43 PM 49.3°F9.6°C 52.8°F11.6°C 84% Calm Calm -- 30.13 in1020.3 mb 0.00 in0.0 mm 0.00 in0.0 mm 0.00 in0.0 mm
04:46 PM 49.3°F9.6°C 52.6°F11.4°C 84% Calm Calm -- 30.13 in1020.3 mb 0.00 in0.0 mm 0.00 in0.0 mm 0.00 in0.0 mm
04:49 PM 49.3°F9.6°C 52.1°F11.2°C 83% Calm Calm -- 30.13 in1020.3 mb 0.00 in0.0 mm 0.00 in0.0 mm 0.00 in0.0 mm
04:52 PM 49.2°F9.6°C 52.3°F11.3°C 84% Calm Calm -- 30.13 in1020.3 mb 0.00 in0.0 mm 0.00 in0.0 mm 0.00 in0.0 mm
04:55 PM 49.1°F9.5°C 52.1°F11.2°C 84% Calm Calm -- 30.13 in1020.3 mb 0.00 in0.0 mm 0.00 in0.0 mm 0.00 in0.0 mm
04:58 PM 49.1°F9.5°C 52.2°F11.2°C 84% Calm Calm -- 30.13 in1020.3 mb 0.00 in0.0 mm 0.00 in0.0 mm 0.00 in0.0 mm
05:01 PM 48.9°F9.4°C 52.0°F11.1°C 84% Calm Calm -- 30.13 in1020.3 mb 0.00 in0.0 mm 0.00 in0.0 mm 0.00 in0.0 mm
05:04 PM 48.8°F9.3°C 52.0°F11.1°C 84% Calm Calm -- 30.13 in1020.3 mb 0.00 in0.0 mm 0.00 in0.0 mm 0.00 in0.0 mm
05:07 PM 48.7°F9.3°C 52.1°F11.2°C 84% Calm Calm -- 30.13 in1020.3 mb 0.00 in0.0 mm 0.00 in0.0 mm 0.00 in0.0 mm
05:10 PM 48.5°F9.2°C 51.8°F11.0°C 83% Calm Calm -- 30.13 in1020.3 mb 0.00 in0.0 mm 0.00 in0.0 mm 0.00 in0.0 mm
05:13 PM 48.3°F9.1°C 51.7°F10.9°C 84% Calm Calm -- 30.13 in1020.3 mb 0.00 in0.0 mm 0.00 in0.0 mm 0.00 in0.0 mm
05:16 PM 48.1°F8.9°C 51.9°F11.1°C 84% Calm Calm -- 30.13 in1020.3 mb 0.00 in0.0 mm 0.00 in0.0 mm 0.00 in0.0 mm
05:19 PM 47.8°F8.8°C 51.6°F10.9°C 83% Calm Calm -- 30.13 in1020.3 mb 0.00 in0.0 mm 0.00 in0.0 mm 0.00 in0.0 mm
05:22 PM 47.8°F8.8°C 51.2°F10.7°C 83% Calm Calm -- 30.13 in1020.3 mb 0.00 in0.0 mm 0.00 in0.0 mm 0.00 in0.0 mm
05:25 PM 47.8°F8.8°C 51.5°F10.8°C 84% Calm Calm -- 30.13 in1020.3 mb 0.00 in0.0 mm 0.00 in0.0 mm 0.00 in0.0 mm
05:28 PM 47.6°F8.7°C 51.4°F10.8°C 84% Calm Calm -- 30.13 in1020.3 mb 0.00 in0.0 mm 0.00 in0.0 mm 0.00 in0.0 mm
05:31 PM 47.4°F8.6°C 51.2°F10.7°C 83% Calm Calm -- 30.12 in1020.0 mb 0.00 in0.0 mm 0.00 in0.0 mm 0.00 in0.0 mm
05:34 PM 47.1°F8.4°C 50.9°F10.5°C 83% Calm Calm -- 30.13 in1020.3 mb 0.00 in0.0 mm 0.00 in0.0 mm 0.00 in0.0 mm
05:37 PM 47.0°F8.3°C 50.8°F10.4°C 83% Calm Calm -- 30.13 in1020.3 mb 0.00 in0.0 mm 0.00 in0.0 mm 0.00 in0.0 mm
05:40 PM 46.9°F8.3°C 50.7°F10.4°C 83% Calm Calm -- 30.13 in1020.3 mb 0.00 in0.0 mm 0.00 in0.0 mm 0.00 in0.0 mm
05:43 PM 47.0°F8.3°C 50.7°F10.4°C 83% Calm Calm -- 30.12 in1020.0 mb 0.00 in0.0 mm 0.00 in0.0 mm 0.00 in0.0 mm
05:46 PM 46.9°F8.3°C 50.7°F10.4°C 83% Calm Calm -- 30.13 in1020.3 mb 0.00 in0.0 mm 0.00 in0.0 mm 0.00 in0.0 mm
05:49 PM 46.5°F8.1°C 50.6°F10.3°C 83% Calm Calm -- 30.12 in1020.0 mb 0.00 in0.0 mm 0.00 in0.0 mm 0.00 in0.0 mm
05:52 PM 47.1°F8.4°C 50.5°F10.3°C 83% Calm Calm -- 30.13 in1020.3 mb 0.00 in0.0 mm 0.00 in0.0 mm 0.00 in0.0 mm
05:55 PM 47.0°F8.3°C 50.5°F10.3°C 84% Calm Calm -- 30.12 in1020.0 mb 0.00 in0.0 mm 0.00 in0.0 mm 0.00 in0.0 mm
05:58 PM 46.9°F8.3°C 50.5°F10.3°C 84% Calm Calm -- 30.13 in1020.3 mb 0.00 in0.0 mm 0.00 in0.0 mm 0.00 in0.0 mm
06:01 PM 47.0°F8.3°C 50.7°F10.4°C 84% Calm Calm -- 30.13 in1020.3 mb 0.00 in0.0 mm 0.00 in0.0 mm 0.00 in0.0 mm
06:04 PM 47.0°F8.3°C 50.6°F10.3°C 84% Calm Calm -- 30.13 in1020.3 mb 0.00 in0.0 mm 0.00 in0.0 mm 0.00 in0.0 mm
06:07 PM 47.1°F8.4°C 50.7°F10.4°C 84% Calm Calm -- 30.13 in1020.3 mb 0.00 in0.0 mm 0.00 in0.0 mm 0.00 in0.0 mm
06:10 PM 46.9°F8.3°C 50.9°F10.5°C 85% Calm Calm -- 30.13 in1020.3 mb 0.00 in0.0 mm 0.00 in0.0 mm 0.00 in0.0 mm
06:13 PM 46.7°F8.2°C 50.7°F10.4°C 85% Calm Calm -- 30.12 in1020.0 mb 0.00 in0.0 mm 0.00 in0.0 mm 0.00 in0.0 mm
06:16 PM 46.7°F8.2°C 50.5°F10.3°C 85% Calm Calm -- 30.13 in1020.3 mb 0.00 in0.0 mm 0.00 in0.0 mm 0.00 in0.0 mm
06:19 PM 46.9°F8.3°C 50.6°F10.3°C 85% Calm Calm -- 30.13 in1020.3 mb 0.00 in0.0 mm 0.00 in0.0 mm 0.00 in0.0 mm
06:22 PM 47.0°F8.3°C 50.6°F10.3°C 85% Calm Calm -- 30.12 in1020.0 mb 0.00 in0.0 mm 0.00 in0.0 mm 0.00 in0.0 mm
06:25 PM 47.0°F8.3°C 50.4°F10.2°C 84% Calm Calm -- 30.12 in1020.0 mb 0.00 in0.0 mm 0.00 in0.0 mm 0.00 in0.0 mm
06:28 PM 47.0°F8.3°C 50.2°F10.1°C 84% Calm Calm -- 30.13 in1020.3 mb 0.00 in0.0 mm 0.00 in0.0 mm 0.00 in0.0 mm
06:31 PM 47.0°F8.3°C 50.5°F10.3°C 85% Calm Calm -- 30.13 in1020.3 mb 0.00 in0.0 mm 0.00 in0.0 mm 0.00 in0.0 mm
06:34 PM 46.7°F8.2°C 50.6°F10.3°C 85% Calm Calm -- 30.13 in1020.3 mb 0.00 in0.0 mm 0.00 in0.0 mm 0.00 in0.0 mm
06:37 PM 46.6°F8.1°C 50.4°F10.2°C 85% Calm Calm -- 30.12 in1020.0 mb 0.00 in0.0 mm 0.00 in0.0 mm 0.00 in0.0 mm
06:40 PM 46.4°F8.0°C 50.7°F10.4°C 85% Calm Calm -- 30.12 in1020.0 mb 0.00 in0.0 mm 0.00 in0.0 mm 0.00 in0.0 mm
06:43 PM 46.6°F8.1°C 50.4°F10.2°C 85% Calm Calm -- 30.12 in1020.0 mb 0.00 in0.0 mm 0.00 in0.0 mm 0.00 in0.0 mm
06:46 PM 46.5°F8.1°C 50.2°F10.1°C 85% Calm Calm -- 30.12 in1020.0 mb 0.00 in0.0 mm 0.00 in0.0 mm 0.00 in0.0 mm
06:49 PM 46.6°F8.1°C 50.4°F10.2°C 85% Calm Calm -- 30.11 in1019.6 mb 0.00 in0.0 mm 0.00 in0.0 mm 0.00 in0.0 mm
06:52 PM 46.6°F8.1°C 50.5°F10.3°C 85% Calm Calm -- 30.12 in1020.0 mb 0.00 in0.0 mm 0.00 in0.0 mm 0.00 in0.0 mm
06:55 PM 46.7°F8.2°C 50.3°F10.2°C 85% Calm Calm -- 30.12 in1020.0 mb 0.00 in0.0 mm 0.00 in0.0 mm 0.00 in0.0 mm
06:58 PM 46.5°F8.1°C 50.3°F10.2°C 85% Calm Calm -- 30.12 in1020.0 mb 0.00 in0.0 mm 0.00 in0.0 mm 0.00 in0.0 mm
07:01 PM 46.5°F8.1°C 50.4°F10.2°C 85% Calm Calm -- 30.11 in1019.6 mb 0.00 in0.0 mm 0.00 in0.0 mm 0.00 in0.0 mm
07:04 PM 46.5°F8.1°C 50.3°F10.2°C 85% Calm Calm -- 30.11 in1019.6 mb 0.00 in0.0 mm 0.00 in0.0 mm 0.00 in0.0 mm
07:07 PM 46.4°F8.0°C 50.2°F10.1°C 85% Calm Calm -- 30.11 in1019.6 mb 0.00 in0.0 mm 0.00 in0.0 mm 0.00 in0.0 mm
07:10 PM 46.4°F8.0°C 50.2°F10.1°C 85% Calm Calm -- 30.11 in1019.6 mb 0.00 in0.0 mm 0.00 in0.0 mm 0.00 in0.0 mm
07:13 PM 46.5°F8.1°C 50.3°F10.2°C 85% Calm Calm -- 30.11 in1019.6 mb 0.00 in0.0 mm 0.00 in0.0 mm 0.00 in0.0 mm
07:16 PM 46.3°F7.9°C 50.3°F10.2°C 86% Calm Calm -- 30.11 in1019.6 mb 0.00 in0.0 mm 0.00 in0.0 mm 0.00 in0.0 mm
07:19 PM 46.2°F7.9°C 50.3°F10.2°C 86% Calm Calm -- 30.11 in1019.6 mb 0.00 in0.0 mm 0.00 in0.0 mm 0.00 in0.0 mm
07:22 PM 45.8°F7.7°C 49.9°F9.9°C 85% Calm Calm -- 30.11 in1019.6 mb 0.00 in0.0 mm 0.00 in0.0 mm 0.00 in0.0 mm
07:25 PM 46.2°F7.9°C 50.0°F10.0°C 85% Calm Calm -- 30.11 in1019.6 mb 0.00 in0.0 mm 0.00 in0.0 mm 0.00 in0.0 mm
07:28 PM 46.1°F7.8°C 49.8°F9.9°C 85% Calm Calm -- 30.11 in1019.6 mb 0.00 in0.0 mm 0.00 in0.0 mm 0.00 in0.0 mm
07:31 PM 46.5°F8.1°C 49.7°F9.8°C 85% Calm Calm -- 30.11 in1019.6 mb 0.00 in0.0 mm 0.00 in0.0 mm 0.00 in0.0 mm
07:34 PM 46.0°F7.8°C 50.1°F10.1°C 86% Calm Calm -- 30.11 in1019.6 mb 0.00 in0.0 mm 0.00 in0.0 mm 0.00 in0.0 mm
07:37 PM 46.0°F7.8°C 50.0°F10.0°C 86% Calm Calm -- 30.11 in1019.6 mb 0.00 in0.0 mm 0.00 in0.0 mm 0.00 in0.0 mm
07:40 PM 46.0°F7.8°C 50.1°F10.1°C 86% Calm Calm -- 30.10 in1019.3 mb 0.00 in0.0 mm 0.00 in0.0 mm 0.00 in0.0 mm
07:43 PM 45.8°F7.7°C 50.1°F10.1°C 86% Calm Calm -- 30.10 in1019.3 mb 0.00 in0.0 mm 0.00 in0.0 mm 0.00 in0.0 mm
07:46 PM 46.0°F7.8°C 49.9°F9.9°C 86% Calm Calm -- 30.10 in1019.3 mb 0.00 in0.0 mm 0.00 in0.0 mm 0.00 in0.0 mm
07:49 PM 45.8°F7.7°C 50.0°F10.0°C 86% Calm Calm -- 30.10 in1019.3 mb 0.00 in0.0 mm 0.00 in0.0 mm 0.00 in0.0 mm
07:52 PM 45.8°F7.7°C 49.9°F9.9°C 86% Calm Calm -- 30.10 in1019.3 mb 0.00 in0.0 mm 0.00 in0.0 mm 0.00 in0.0 mm
07:55 PM 45.7°F7.6°C 50.0°F10.0°C 86% Calm Calm -- 30.10 in1019.3 mb 0.00 in0.0 mm 0.00 in0.0 mm 0.00 in0.0 mm
07:58 PM 45.4°F7.4°C 49.8°F9.9°C 86% Calm Calm -- 30.10 in1019.3 mb 0.00 in0.0 mm 0.00 in0.0 mm 0.00 in0.0 mm
08:01 PM 45.2°F7.3°C 49.5°F9.7°C 85% Calm Calm -- 30.10 in1019.3 mb 0.00 in0.0 mm 0.00 in0.0 mm 0.00 in0.0 mm
08:04 PM 45.2°F7.3°C 49.3°F9.6°C 85% Calm Calm -- 30.10 in1019.3 mb 0.00 in0.0 mm 0.00 in0.0 mm 0.00 in0.0 mm
08:07 PM 45.2°F7.3°C 49.3°F9.6°C 86% Calm Calm -- 30.10 in1019.3 mb 0.00 in0.0 mm 0.00 in0.0 mm 0.00 in0.0 mm
08:10 PM 45.2°F7.3°C 49.4°F9.7°C 86% Calm Calm -- 30.10 in1019.3 mb 0.00 in0.0 mm 0.00 in0.0 mm 0.00 in0.0 mm
08:13 PM 44.9°F7.2°C 49.5°F9.7°C 86% Calm Calm -- 30.10 in1019.3 mb 0.00 in0.0 mm 0.00 in0.0 mm 0.00 in0.0 mm
08:16 PM 44.8°F7.1°C 49.3°F9.6°C 86% Calm Calm -- 30.10 in1019.3 mb 0.00 in0.0 mm 0.00 in0.0 mm 0.00 in0.0 mm
08:19 PM 44.2°F6.8°C 49.1°F9.5°C 86% Calm Calm -- 30.10 in1019.3 mb 0.00 in0.0 mm 0.00 in0.0 mm 0.00 in0.0 mm
08:22 PM 44.3°F6.8°C 48.7°F9.3°C 85% Calm Calm -- 30.10 in1019.3 mb 0.00 in0.0 mm 0.00 in0.0 mm 0.00 in0.0 mm
08:25 PM 44.3°F6.8°C 48.8°F9.3°C 85% Calm Calm -- 30.10 in1019.3 mb 0.00 in0.0 mm 0.00 in0.0 mm 0.00 in0.0 mm
08:28 PM 44.3°F6.8°C 48.6°F9.2°C 85% Calm Calm -- 30.10 in1019.3 mb 0.00 in0.0 mm 0.00 in0.0 mm 0.00 in0.0 mm
08:31 PM 44.2°F6.8°C 49.0°F9.4°C 86% Calm Calm -- 30.10 in1019.3 mb 0.00 in0.0 mm 0.00 in0.0 mm 0.00 in0.0 mm
08:34 PM 44.6°F7.0°C 49.0°F9.4°C 86% Calm Calm -- 30.10 in1019.3 mb 0.00 in0.0 mm 0.00 in0.0 mm 0.00 in0.0 mm
08:37 PM 44.9°F7.2°C 48.9°F9.4°C 86% Calm Calm -- 30.10 in1019.3 mb 0.00 in0.0 mm 0.00 in0.0 mm 0.00 in0.0 mm
08:40 PM 44.9°F7.2°C 49.1°F9.5°C 87% Calm Calm -- 30.10 in1019.3 mb 0.00 in0.0 mm 0.00 in0.0 mm 0.00 in0.0 mm
08:43 PM 44.9°F7.2°C 49.1°F9.5°C 87% Calm Calm -- 30.10 in1019.3 mb 0.00 in0.0 mm 0.00 in0.0 mm 0.00 in0.0 mm
08:46 PM 45.1°F7.3°C 49.1°F9.5°C 87% Calm Calm -- 30.10 in1019.3 mb 0.00 in0.0 mm 0.00 in0.0 mm 0.00 in0.0 mm
08:49 PM 45.1°F7.3°C 49.3°F9.6°C 87% Calm Calm -- 30.10 in1019.3 mb 0.00 in0.0 mm 0.00 in0.0 mm 0.00 in0.0 mm
08:52 PM 45.2°F7.3°C 49.1°F9.5°C 87% Calm Calm -- 30.09 in1019.0 mb 0.00 in0.0 mm 0.00 in0.0 mm 0.00 in0.0 mm
08:55 PM 45.4°F7.4°C 49.1°F9.5°C 87% Calm Calm -- 30.09 in1019.0 mb 0.00 in0.0 mm 0.00 in0.0 mm 0.00 in0.0 mm
08:58 PM 45.6°F7.6°C 49.4°F9.7°C 87% Calm Calm -- 30.09 in1019.0 mb 0.00 in0.0 mm 0.00 in0.0 mm 0.00 in0.0 mm
09:01 PM 45.6°F7.6°C 49.3°F9.6°C 88% Calm Calm -- 30.09 in1019.0 mb 0.00 in0.0 mm 0.00 in0.0 mm 0.00 in0.0 mm
09:04 PM 45.7°F7.6°C 49.4°F9.7°C 88% 0.4 mph 0.6 kmh 0.4 mph0.6 kmh 30.09 in1019.0 mb 0.00 in0.0 mm 0.00 in0.0 mm 0.00 in0.0 mm
09:07 PM 45.5°F7.5°C 49.4°F9.7°C 88% Calm Calm -- 30.09 in1019.0 mb 0.00 in0.0 mm 0.00 in0.0 mm 0.00 in0.0 mm
09:10 PM 45.6°F7.6°C 49.7°F9.8°C 88% Calm Calm -- 30.08 in1018.6 mb 0.00 in0.0 mm 0.00 in0.0 mm 0.00 in0.0 mm
09:13 PM 45.7°F7.6°C 49.3°F9.6°C 88% Calm Calm -- 30.09 in1019.0 mb 0.00 in0.0 mm 0.00 in0.0 mm 0.00 in0.0 mm
09:16 PM 45.8°F7.7°C 49.4°F9.7°C 88% Calm Calm -- 30.09 in1019.0 mb 0.00 in0.0 mm 0.00 in0.0 mm 0.00 in0.0 mm
09:19 PM 46.1°F7.8°C 49.8°F9.9°C 89% Calm Calm -- 30.09 in1019.0 mb 0.00 in0.0 mm 0.00 in0.0 mm 0.00 in0.0 mm
09:22 PM 46.2°F7.9°C 50.0°F10.0°C 89% Calm Calm -- 30.09 in1019.0 mb 0.00 in0.0 mm 0.00 in0.0 mm 0.00 in0.0 mm
09:25 PM 46.2°F7.9°C 49.9°F9.9°C 89% Calm Calm -- 30.09 in1019.0 mb 0.00 in0.0 mm 0.00 in0.0 mm 0.00 in0.0 mm
09:28 PM 46.4°F8.0°C 49.6°F9.8°C 89% 0.8 mph NW1.3 kmh NW 0.8 mph1.3 kmh 30.08 in1018.6 mb 0.00 in0.0 mm 0.00 in0.0 mm 0.00 in0.0 mm
09:31 PM 46.5°F8.1°C 50.0°F10.0°C 89% Calm Calm -- 30.08 in1018.6 mb 0.00 in0.0 mm 0.00 in0.0 mm 0.00 in0.0 mm
09:34 PM 46.7°F8.2°C 50.4°F10.2°C 89% Calm Calm -- 30.08 in1018.6 mb 0.00 in0.0 mm 0.00 in0.0 mm 0.00 in0.0 mm
09:37 PM 46.5°F8.1°C 50.3°F10.2°C 89% Calm Calm -- 30.08 in1018.6 mb 0.00 in0.0 mm 0.00 in0.0 mm 0.00 in0.0 mm
09:40 PM 46.9°F8.3°C 50.4°F10.2°C 89% Calm Calm -- 30.08 in1018.6 mb 0.00 in0.0 mm 0.00 in0.0 mm 0.00 in0.0 mm
09:43 PM 47.0°F8.3°C 50.1°F10.1°C 89% Calm Calm -- 30.08 in1018.6 mb 0.00 in0.0 mm 0.00 in0.0 mm 0.00 in0.0 mm
09:46 PM 47.0°F8.3°C 50.1°F10.1°C 89% Calm Calm -- 30.08 in1018.6 mb 0.00 in0.0 mm 0.00 in0.0 mm 0.00 in0.0 mm
09:49 PM 47.1°F8.4°C 50.4°F10.2°C 89% Calm Calm -- 30.08 in1018.6 mb 0.00 in0.0 mm 0.00 in0.0 mm 0.00 in0.0 mm
09:52 PM 47.3°F8.5°C 50.6°F10.3°C 90% 0.8 mph SE1.3 kmh SE 0.8 mph1.3 kmh 30.07 in1018.3 mb 0.00 in0.0 mm 0.00 in0.0 mm 0.00 in0.0 mm
09:55 PM 49.2°F9.6°C 51.2°F10.7°C 91% 6.2 mph SE10.0 kmh SE 6.2 mph10.0 kmh 30.08 in1018.6 mb 0.00 in0.0 mm 0.00 in0.0 mm 0.00 in0.0 mm
09:58 PM 50.5°F10.3°C 51.2°F10.7°C 91% 3.4 mph NNW5.5 kmh NNW 3.7 mph6.0 kmh 30.07 in1018.3 mb 0.00 in0.0 mm 0.00 in0.0 mm 0.00 in0.0 mm
10:01 PM 49.9°F9.9°C 51.5°F10.8°C 90% Calm Calm -- 30.07 in1018.3 mb 0.00 in0.0 mm 0.00 in0.0 mm 0.00 in0.0 mm
10:04 PM 50.0°F10.0°C 51.5°F10.8°C 89% 3.6 mph SE5.8 kmh SE 3.6 mph5.8 kmh 30.07 in1018.3 mb 0.00 in0.0 mm 0.00 in0.0 mm 0.00 in0.0 mm
10:07 PM 50.1°F10.1°C 51.6°F10.9°C 89% 3.0 mph NNW4.8 kmh NNW 3.2 mph5.1 kmh 30.07 in1018.3 mb 0.00 in0.0 mm 0.00 in0.0 mm 0.00 in0.0 mm
10:10 PM 49.9°F9.9°C 51.8°F11.0°C 89% 3.1 mph SSE5.0 kmh SSE 3.1 mph5.0 kmh 30.07 in1018.3 mb 0.00 in0.0 mm 0.00 in0.0 mm 0.00 in0.0 mm
10:13 PM 50.1°F10.1°C 51.5°F10.8°C 88% 4.6 mph SE7.4 kmh SE 4.6 mph7.4 kmh 30.07 in1018.3 mb 0.00 in0.0 mm 0.00 in0.0 mm 0.00 in0.0 mm
10:16 PM 50.1°F10.1°C 51.6°F10.9°C 88% 6.0 mph SE9.7 kmh SE 6.1 mph9.8 kmh 30.07 in1018.3 mb 0.00 in0.0 mm 0.00 in0.0 mm 0.00 in0.0 mm
10:19 PM 50.2°F10.1°C 51.5°F10.8°C 87% 6.8 mph SE10.9 kmh SE 6.8 mph10.9 kmh 30.07 in1018.3 mb 0.00 in0.0 mm 0.00 in0.0 mm 0.00 in0.0 mm
10:22 PM 50.3°F10.2°C 51.6°F10.9°C 87% 6.3 mph ESE10.1 kmh ESE 6.4 mph10.3 kmh 30.07 in1018.3 mb 0.00 in0.0 mm 0.00 in0.0 mm 0.00 in0.0 mm
10:25 PM 50.3°F10.2°C 51.7°F10.9°C 87% 6.4 mph ESE10.3 kmh ESE 6.4 mph10.3 kmh 30.07 in1018.3 mb 0.00 in0.0 mm 0.00 in0.0 mm 0.00 in0.0 mm
10:28 PM 50.3°F10.2°C 51.9°F11.1°C 87% 6.5 mph ENE10.5 kmh ENE 6.5 mph10.5 kmh 30.07 in1018.3 mb 0.00 in0.0 mm 0.00 in0.0 mm 0.00 in0.0 mm
10:31 PM 50.6°F10.3°C 51.5°F10.8°C 87% 9.4 mph NNW15.1 kmh NNW 9.5 mph15.3 kmh 30.07 in1018.3 mb 0.00 in0.0 mm 0.00 in0.0 mm 0.00 in0.0 mm
10:34 PM 50.8°F10.4°C 51.8°F11.0°C 86% 5.8 mph ESE9.3 kmh ESE 5.8 mph9.3 kmh 30.07 in1018.3 mb 0.00 in0.0 mm 0.00 in0.0 mm 0.00 in0.0 mm
10:37 PM 50.8°F10.4°C 51.9°F11.1°C 86% 4.9 mph ESE7.9 kmh ESE 4.9 mph7.9 kmh 30.07 in1018.3 mb 0.00 in0.0 mm 0.00 in0.0 mm 0.00 in0.0 mm
10:40 PM 50.7°F10.4°C 51.9°F11.1°C 86% 7.2 mph ESE11.6 kmh ESE 7.2 mph11.6 kmh 30.07 in1018.3 mb 0.00 in0.0 mm 0.00 in0.0 mm 0.00 in0.0 mm
10:43 PM 50.6°F10.3°C 51.9°F11.1°C 86% 5.2 mph SE8.4 kmh SE 5.2 mph8.4 kmh 30.07 in1018.3 mb 0.00 in0.0 mm 0.00 in0.0 mm 0.00 in0.0 mm
10:46 PM 50.9°F10.5°C 52.2°F11.2°C 86% 7.3 mph SE11.7 kmh SE 7.3 mph11.7 kmh 30.07 in1018.3 mb 0.00 in0.0 mm 0.00 in0.0 mm 0.00 in0.0 mm
10:49 PM 50.8°F10.4°C 52.1°F11.2°C 85% 3.6 mph ESE5.8 kmh ESE 3.7 mph6.0 kmh 30.06 in1017.9 mb 0.00 in0.0 mm 0.00 in0.0 mm 0.00 in0.0 mm
10:52 PM 51.0°F10.6°C 51.8°F11.0°C 85% 9.2 mph ESE14.8 kmh ESE 9.3 mph15.0 kmh 30.06 in1017.9 mb 0.00 in0.0 mm 0.00 in0.0 mm 0.00 in0.0 mm
10:55 PM 50.8°F10.4°C 51.8°F11.0°C 85% 2.4 mph ESE3.9 kmh ESE 2.4 mph3.9 kmh 30.07 in1018.3 mb 0.00 in0.0 mm 0.00 in0.0 mm 0.00 in0.0 mm
10:58 PM 50.9°F10.5°C 52.0°F11.1°C 85% 6.9 mph ESE11.1 kmh ESE 6.9 mph11.1 kmh 30.07 in1018.3 mb 0.00 in0.0 mm 0.00 in0.0 mm 0.00 in0.0 mm
11:01 PM 50.9°F10.5°C 51.9°F11.1°C 85% 9.3 mph SE15.0 kmh SE 9.4 mph15.1 kmh 30.06 in1017.9 mb 0.00 in0.0 mm 0.00 in0.0 mm 0.00 in0.0 mm
11:04 PM 50.9°F10.5°C 51.8°F11.0°C 85% 7.2 mph SE11.6 kmh SE 7.3 mph11.7 kmh 30.06 in1017.9 mb 0.00 in0.0 mm 0.00 in0.0 mm 0.00 in0.0 mm
11:07 PM 50.9°F10.5°C 51.7°F10.9°C 84% 6.1 mph NNW9.8 kmh NNW 6.1 mph9.8 kmh 30.06 in1017.9 mb 0.00 in0.0 mm 0.00 in0.0 mm 0.00 in0.0 mm
11:10 PM 50.7°F10.4°C 51.9°F11.1°C 85% 4.4 mph SE7.1 kmh SE 4.5 mph7.2 kmh 30.06 in1017.9 mb 0.00 in0.0 mm 0.00 in0.0 mm 0.00 in0.0 mm
11:13 PM 50.6°F10.3°C 51.9°F11.1°C 85% 8.0 mph NNW12.9 kmh NNW 8.1 mph13.0 kmh 30.06 in1017.9 mb 0.00 in0.0 mm 0.00 in0.0 mm 0.00 in0.0 mm
11:16 PM 50.6°F10.3°C 51.4°F10.8°C 84% 7.3 mph ESE11.7 kmh ESE 7.3 mph11.7 kmh 30.05 in1017.6 mb 0.00 in0.0 mm 0.00 in0.0 mm 0.00 in0.0 mm
11:19 PM 50.6°F10.3°C 51.6°F10.9°C 85% 8.5 mph ESE13.7 kmh ESE 8.6 mph13.8 kmh 30.05 in1017.6 mb 0.00 in0.0 mm 0.00 in0.0 mm 0.00 in0.0 mm
11:22 PM 50.3°F10.2°C 51.5°F10.8°C 84% 5.2 mph ESE8.4 kmh ESE 5.3 mph8.5 kmh 30.05 in1017.6 mb 0.00 in0.0 mm 0.00 in0.0 mm 0.00 in0.0 mm
11:25 PM 50.1°F10.1°C 51.7°F10.9°C 85% 4.1 mph SE6.6 kmh SE 4.1 mph6.6 kmh 30.05 in1017.6 mb 0.00 in0.0 mm 0.00 in0.0 mm 0.00 in0.0 mm
11:28 PM 50.5°F10.3°C 51.6°F10.9°C 85% 6.1 mph SE9.8 kmh SE 6.1 mph9.8 kmh 30.05 in1017.6 mb 0.00 in0.0 mm 0.00 in0.0 mm 0.00 in0.0 mm
11:31 PM 50.1°F10.1°C 52.0°F11.1°C 85% 6.1 mph SE9.8 kmh SE 6.1 mph9.8 kmh 30.05 in1017.6 mb 0.00 in0.0 mm 0.00 in0.0 mm 0.00 in0.0 mm
11:34 PM 50.1°F10.1°C 51.3°F10.7°C 85% 6.5 mph SE10.5 kmh SE 6.5 mph10.5 kmh 30.05 in1017.6 mb 0.00 in0.0 mm 0.00 in0.0 mm 0.00 in0.0 mm
11:37 PM 49.7°F9.8°C 51.8°F11.0°C 85% 7.1 mph SE11.4 kmh SE 7.2 mph11.6 kmh 30.05 in1017.6 mb 0.00 in0.0 mm 0.00 in0.0 mm 0.00 in0.0 mm
11:40 PM 49.9°F9.9°C 51.5°F10.8°C 85% 6.6 mph ESE10.6 kmh ESE 6.7 mph10.8 kmh 30.05 in1017.6 mb 0.00 in0.0 mm 0.00 in0.0 mm 0.00 in0.0 mm
11:43 PM 49.9°F9.9°C 51.3°F10.7°C 85% 8.0 mph SE12.9 kmh SE 8.0 mph12.9 kmh 30.04 in1017.3 mb 0.00 in0.0 mm 0.00 in0.0 mm 0.00 in0.0 mm
11:46 PM 49.7°F9.8°C 51.3°F10.7°C 85% 5.0 mph SE8.0 kmh SE 5.3 mph8.5 kmh 30.05 in1017.6 mb 0.00 in0.0 mm 0.00 in0.0 mm 0.00 in0.0 mm
11:49 PM 49.7°F9.8°C 51.4°F10.8°C 85% 7.2 mph NNW11.6 kmh NNW 7.2 mph11.6 kmh 30.04 in1017.3 mb 0.00 in0.0 mm 0.00 in0.0 mm 0.00 in0.0 mm
11:52 PM 49.7°F9.8°C 51.4°F10.8°C 85% 4.6 mph SE7.4 kmh SE 4.7 mph7.6 kmh 30.05 in1017.6 mb 0.00 in0.0 mm 0.00 in0.0 mm 0.00 in0.0 mm
11:55 PM 49.6°F9.8°C 51.6°F10.9°C 85% 6.6 mph SE10.6 kmh SE 6.6 mph10.6 kmh 30.05 in1017.6 mb 0.00 in0.0 mm 0.00 in0.0 mm 0.00 in0.0 mm
11:58 PM 49.4°F9.7°C 51.4°F10.8°C 85% 3.1 mph NNW5.0 kmh NNW 3.3 mph5.3 kmh 30.04 in1017.3 mb 0.00 in0.0 mm 0.00 in0.0 mm 0.00 in0.0 mm